<?xml version="1.0" encoding="UTF-8" standalone="no" ?>
<gpx xmlns="http://www.topografix.com/GPX/1/1" xmlns:xsi="http://www.w3.org/2001/XMLSchema-instance" xsi:schemaLocation="http://www.topografix.com/GPX/1/1 http://www.topografix.com/GPX/1/1/gpx.xsd" version="1.1" creator="VisuGPX - https://www.visugpx.com">
  <metadata>
    <name>Arrigas - col de l'Homme mort</name>
    <desc><![CDATA[2017-05 - Arrigas - col des airettes - rocher de Saint-Guiral - col de l'Homme mort

[b]album[/b] : [url]https://goo.gl/photos/zUo1Cevvf2MwqqVr7[/url]

[img]https://4.bp.blogspot.com/-zOQM-c1eLLo/WSiDosepGNI/AAAAAAAATqQ/hbzYt-8tUHEo71Nu9posCgUpypztdKL5ACLcB/s1600/2017-05_Arrigas_St-Guiral_i.JPG[/img]

[b]Idées de randonnées dans la même région[/b]
Parcours : [url]https://www.visugpx.com/membres/24856/montagne/aigoual/[/url]
Photos : [url]https://jcvertygo.blogspot.com/p/mont-aigoual.html[/url]]]></desc>
  </metadata>
  <trk>
    <name><![CDATA[Arrigas - col de l'Homme mort_1]]></name>
    <trkseg>
      <trkpt lat="43.98968" lon="3.47995">
        <ele>504</ele>
        <time>2017-05-26T12:30:42Z</time>
      </trkpt>
      <trkpt lat="43.98975" lon="3.47991">
        <ele>504</ele>
        <time>2017-05-26T12:30:47Z</time>
      </trkpt>
      <trkpt lat="43.9898" lon="3.47986">
        <ele>504.3070477211</ele>
        <time>2017-05-26T12:30:52Z</time>
      </trkpt>
      <trkpt lat="43.98984" lon="3.47982">
        <ele>504.3070477211</ele>
        <time>2017-05-26T12:31:00Z</time>
      </trkpt>
      <trkpt lat="43.99" lon="3.4797">
        <ele>506.78438854634</ele>
        <time>2017-05-26T12:31:12Z</time>
      </trkpt>
      <trkpt lat="43.9902" lon="3.4796">
        <ele>508.53761490302</ele>
        <time>2017-05-26T12:31:36Z</time>
      </trkpt>
      <trkpt lat="43.99021" lon="3.47961">
        <ele>508.53761490302</ele>
        <time>2017-05-26T12:31:37Z</time>
      </trkpt>
      <trkpt lat="43.99036" lon="3.47967">
        <ele>510.46482173219</ele>
        <time>2017-05-26T12:31:55Z</time>
      </trkpt>
      <trkpt lat="43.99041" lon="3.47972">
        <ele>510.46482173219</ele>
        <time>2017-05-26T12:31:55Z</time>
      </trkpt>
      <trkpt lat="43.99048" lon="3.47978">
        <ele>512.498857111</ele>
        <time>2017-05-26T12:32:12Z</time>
      </trkpt>
      <trkpt lat="43.99061" lon="3.4798">
        <ele>514.52592926344</ele>
        <time>2017-05-26T12:32:24Z</time>
      </trkpt>
      <trkpt lat="43.99064" lon="3.47978">
        <ele>514.52592926344</ele>
        <time>2017-05-26T12:32:46Z</time>
      </trkpt>
      <trkpt lat="43.99069" lon="3.47979">
        <ele>514.52592926344</ele>
        <time>2017-05-26T12:32:46Z</time>
      </trkpt>
      <trkpt lat="43.99069" lon="3.47978">
        <ele>516.59999886658</ele>
        <time>2017-05-26T12:32:47Z</time>
      </trkpt>
      <trkpt lat="43.99066" lon="3.47963">
        <ele>518.93466691969</ele>
        <time>2017-05-26T12:33:12Z</time>
      </trkpt>
      <trkpt lat="43.99065" lon="3.47959">
        <ele>518.93466691969</ele>
        <time>2017-05-26T12:33:17Z</time>
      </trkpt>
      <trkpt lat="43.99073" lon="3.47958">
        <ele>521.29553570731</ele>
        <time>2017-05-26T12:33:40Z</time>
      </trkpt>
      <trkpt lat="43.99076" lon="3.4796">
        <ele>521.29553570731</ele>
        <time>2017-05-26T12:33:43Z</time>
      </trkpt>
      <trkpt lat="43.99092" lon="3.47963">
        <ele>523.10790747207</ele>
        <time>2017-05-26T12:33:53Z</time>
      </trkpt>
      <trkpt lat="43.99097" lon="3.47963">
        <ele>523.10790747207</ele>
        <time>2017-05-26T12:33:57Z</time>
      </trkpt>
      <trkpt lat="43.99101" lon="3.47963">
        <ele>523.10790747207</ele>
        <time>2017-05-26T12:34:02Z</time>
      </trkpt>
      <trkpt lat="43.99129" lon="3.48037">
        <ele>525.17474599433</ele>
        <time>2017-05-26T12:35:00Z</time>
      </trkpt>
      <trkpt lat="43.99129" lon="3.48037">
        <ele>525.17474599433</ele>
        <time>2017-05-26T12:35:08Z</time>
      </trkpt>
      <trkpt lat="43.99146" lon="3.48093">
        <ele>527.5116459258</ele>
        <time>2017-05-26T12:35:39Z</time>
      </trkpt>
      <trkpt lat="43.99149" lon="3.48096">
        <ele>527.5116459258</ele>
        <time>2017-05-26T12:35:42Z</time>
      </trkpt>
      <trkpt lat="43.99152" lon="3.48101">
        <ele>527.5116459258</ele>
        <time>2017-05-26T12:35:47Z</time>
      </trkpt>
      <trkpt lat="43.99153" lon="3.48101">
        <ele>527.5116459258</ele>
        <time>2017-05-26T12:35:52Z</time>
      </trkpt>
      <trkpt lat="43.99152" lon="3.48096">
        <ele>529.20631614527</ele>
        <time>2017-05-26T12:36:02Z</time>
      </trkpt>
      <trkpt lat="43.99151" lon="3.48092">
        <ele>529.20631614527</ele>
        <time>2017-05-26T12:36:07Z</time>
      </trkpt>
      <trkpt lat="43.99151" lon="3.48087">
        <ele>529.20631614527</ele>
        <time>2017-05-26T12:36:12Z</time>
      </trkpt>
      <trkpt lat="43.99153" lon="3.4808">
        <ele>530.43212899672</ele>
        <time>2017-05-26T12:36:17Z</time>
      </trkpt>
      <trkpt lat="43.99155" lon="3.48074">
        <ele>530.43212899672</ele>
        <time>2017-05-26T12:36:22Z</time>
      </trkpt>
      <trkpt lat="43.99156" lon="3.48069">
        <ele>530.43212899672</ele>
        <time>2017-05-26T12:36:27Z</time>
      </trkpt>
      <trkpt lat="43.99159" lon="3.48061">
        <ele>531.43846023413</ele>
        <time>2017-05-26T12:36:32Z</time>
      </trkpt>
      <trkpt lat="43.99162" lon="3.48057">
        <ele>531.43846023413</ele>
        <time>2017-05-26T12:36:37Z</time>
      </trkpt>
      <trkpt lat="43.99166" lon="3.48058">
        <ele>532.18867089423</ele>
        <time>2017-05-26T12:36:43Z</time>
      </trkpt>
      <trkpt lat="43.9917" lon="3.4806">
        <ele>532.18867089423</ele>
        <time>2017-05-26T12:36:48Z</time>
      </trkpt>
      <trkpt lat="43.99177" lon="3.48071">
        <ele>532.78115830028</ele>
        <time>2017-05-26T12:36:57Z</time>
      </trkpt>
      <trkpt lat="43.99179" lon="3.48079">
        <ele>532.78115830028</ele>
        <time>2017-05-26T12:37:02Z</time>
      </trkpt>
      <trkpt lat="43.99185" lon="3.48091">
        <ele>533.17239644708</ele>
        <time>2017-05-26T12:37:12Z</time>
      </trkpt>
      <trkpt lat="43.99184" lon="3.48092">
        <ele>533.17239644708</ele>
        <time>2017-05-26T12:37:17Z</time>
      </trkpt>
      <trkpt lat="43.99201" lon="3.48123">
        <ele>533.67273859856</ele>
        <time>2017-05-26T12:37:47Z</time>
      </trkpt>
      <trkpt lat="43.99214" lon="3.48127">
        <ele>534.29827419212</ele>
        <time>2017-05-26T12:37:58Z</time>
      </trkpt>
      <trkpt lat="43.99218" lon="3.48129">
        <ele>534.29827419212</ele>
        <time>2017-05-26T12:38:02Z</time>
      </trkpt>
      <trkpt lat="43.99223" lon="3.4813">
        <ele>535.08993534622</ele>
        <time>2017-05-26T12:38:07Z</time>
      </trkpt>
      <trkpt lat="43.99237" lon="3.48141">
        <ele>536.33873544922</ele>
        <time>2017-05-26T12:38:27Z</time>
      </trkpt>
      <trkpt lat="43.99239" lon="3.48164">
        <ele>537.83052785434</ele>
        <time>2017-05-26T12:38:53Z</time>
      </trkpt>
      <trkpt lat="43.9924" lon="3.48163">
        <ele>537.83052785434</ele>
        <time>2017-05-26T12:38:53Z</time>
      </trkpt>
      <trkpt lat="43.99241" lon="3.48225">
        <ele>539.77548528002</ele>
        <time>2017-05-26T12:39:47Z</time>
      </trkpt>
      <trkpt lat="43.99241" lon="3.4823">
        <ele>539.77548528002</ele>
        <time>2017-05-26T12:39:47Z</time>
      </trkpt>
      <trkpt lat="43.99245" lon="3.48247">
        <ele>541.71591694196</ele>
        <time>2017-05-26T12:40:00Z</time>
      </trkpt>
      <trkpt lat="43.99245" lon="3.48248">
        <ele>541.71591694196</ele>
        <time>2017-05-26T12:40:09Z</time>
      </trkpt>
      <trkpt lat="43.99249" lon="3.48255">
        <ele>541.71591694196</ele>
        <time>2017-05-26T12:40:09Z</time>
      </trkpt>
      <trkpt lat="43.99253" lon="3.48263">
        <ele>543.82431992705</ele>
        <time>2017-05-26T12:40:27Z</time>
      </trkpt>
      <trkpt lat="43.99259" lon="3.48272">
        <ele>545.84048707603</ele>
        <time>2017-05-26T12:40:27Z</time>
      </trkpt>
      <trkpt lat="43.99289" lon="3.4831">
        <ele>548.4496853901</ele>
        <time>2017-05-26T12:41:22Z</time>
      </trkpt>
      <trkpt lat="43.99323" lon="3.48321">
        <ele>551.30167515586</ele>
        <time>2017-05-26T12:42:09Z</time>
      </trkpt>
      <trkpt lat="43.9933" lon="3.4833">
        <ele>553.98348455767</ele>
        <time>2017-05-26T12:42:17Z</time>
      </trkpt>
      <trkpt lat="43.99341" lon="3.48342">
        <ele>556.72982787109</ele>
        <time>2017-05-26T12:42:36Z</time>
      </trkpt>
      <trkpt lat="43.99362" lon="3.48345">
        <ele>559.86693235933</ele>
        <time>2017-05-26T12:43:07Z</time>
      </trkpt>
      <trkpt lat="43.99489" lon="3.48366">
        <ele>569.26327693178</ele>
        <time>2017-05-26T12:45:20Z</time>
      </trkpt>
      <trkpt lat="43.99492" lon="3.48366">
        <ele>569.26327693178</ele>
        <time>2017-05-26T12:45:22Z</time>
      </trkpt>
      <trkpt lat="43.9951" lon="3.48371">
        <ele>577.97423538465</ele>
        <time>2017-05-26T12:45:53Z</time>
      </trkpt>
      <trkpt lat="43.99575" lon="3.48356">
        <ele>584.82200753485</ele>
        <time>2017-05-26T12:47:00Z</time>
      </trkpt>
      <trkpt lat="43.99575" lon="3.48356">
        <ele>584.82200753485</ele>
        <time>2017-05-26T12:47:07Z</time>
      </trkpt>
      <trkpt lat="43.99609" lon="3.48342">
        <ele>590.68379788736</ele>
        <time>2017-05-26T12:47:39Z</time>
      </trkpt>
      <trkpt lat="43.9961" lon="3.48341">
        <ele>590.68379788736</ele>
        <time>2017-05-26T12:47:42Z</time>
      </trkpt>
      <trkpt lat="43.99705" lon="3.48326">
        <ele>597.59597686455</ele>
        <time>2017-05-26T12:49:17Z</time>
      </trkpt>
      <trkpt lat="43.99709" lon="3.48327">
        <ele>597.59597686455</ele>
        <time>2017-05-26T12:49:17Z</time>
      </trkpt>
      <trkpt lat="43.99719" lon="3.4833">
        <ele>604.01014298413</ele>
        <time>2017-05-26T12:49:29Z</time>
      </trkpt>
      <trkpt lat="43.99722" lon="3.48329">
        <ele>604.01014298413</ele>
        <time>2017-05-26T12:49:32Z</time>
      </trkpt>
      <trkpt lat="43.99724" lon="3.48331">
        <ele>604.01014298413</ele>
        <time>2017-05-26T12:49:37Z</time>
      </trkpt>
      <trkpt lat="43.99732" lon="3.4833">
        <ele>609.89880455205</ele>
        <time>2017-05-26T12:49:51Z</time>
      </trkpt>
      <trkpt lat="43.99744" lon="3.48322">
        <ele>615.22212864516</ele>
        <time>2017-05-26T12:50:08Z</time>
      </trkpt>
      <trkpt lat="43.99751" lon="3.4832">
        <ele>615.22212864516</ele>
        <time>2017-05-26T12:50:08Z</time>
      </trkpt>
      <trkpt lat="43.99758" lon="3.48318">
        <ele>619.97304778901</ele>
        <time>2017-05-26T12:50:16Z</time>
      </trkpt>
      <trkpt lat="43.9978" lon="3.48315">
        <ele>624.5992903366</ele>
        <time>2017-05-26T12:50:40Z</time>
      </trkpt>
      <trkpt lat="43.99783" lon="3.48315">
        <ele>624.5992903366</ele>
        <time>2017-05-26T12:50:40Z</time>
      </trkpt>
      <trkpt lat="43.99803" lon="3.48312">
        <ele>628.91113890768</ele>
        <time>2017-05-26T12:51:05Z</time>
      </trkpt>
      <trkpt lat="43.99804" lon="3.48312">
        <ele>628.91113890768</ele>
        <time>2017-05-26T12:51:05Z</time>
      </trkpt>
      <trkpt lat="43.99808" lon="3.48314">
        <ele>628.91113890768</ele>
        <time>2017-05-26T12:51:06Z</time>
      </trkpt>
      <trkpt lat="43.99833" lon="3.48305">
        <ele>633.29166447542</ele>
        <time>2017-05-26T12:51:47Z</time>
      </trkpt>
      <trkpt lat="43.99835" lon="3.48304">
        <ele>633.29166447542</ele>
        <time>2017-05-26T12:51:47Z</time>
      </trkpt>
      <trkpt lat="43.99844" lon="3.48299">
        <ele>636.14586501966</ele>
        <time>2017-05-26T12:52:12Z</time>
      </trkpt>
      <trkpt lat="43.99859" lon="3.48289">
        <ele>638.5566806401</ele>
        <time>2017-05-26T12:53:05Z</time>
      </trkpt>
      <trkpt lat="43.99874" lon="3.48279">
        <ele>640.58880428479</ele>
        <time>2017-05-26T12:53:17Z</time>
      </trkpt>
      <trkpt lat="43.99885" lon="3.4827">
        <ele>642.27545157334</ele>
        <time>2017-05-26T12:53:42Z</time>
      </trkpt>
      <trkpt lat="43.99892" lon="3.48262">
        <ele>642.27545157334</ele>
        <time>2017-05-26T12:53:49Z</time>
      </trkpt>
      <trkpt lat="43.9992" lon="3.48247">
        <ele>643.87544863228</ele>
        <time>2017-05-26T12:54:22Z</time>
      </trkpt>
      <trkpt lat="43.99923" lon="3.48245">
        <ele>643.87544863228</ele>
        <time>2017-05-26T12:54:22Z</time>
      </trkpt>
      <trkpt lat="43.99928" lon="3.48237">
        <ele>645.17828665602</ele>
        <time>2017-05-26T12:54:30Z</time>
      </trkpt>
      <trkpt lat="43.99939" lon="3.48226">
        <ele>646.27626708058</ele>
        <time>2017-05-26T12:54:56Z</time>
      </trkpt>
      <trkpt lat="43.99945" lon="3.48219">
        <ele>646.27626708058</ele>
        <time>2017-05-26T12:55:13Z</time>
      </trkpt>
      <trkpt lat="43.99956" lon="3.48211">
        <ele>647.46705285438</ele>
        <time>2017-05-26T12:55:13Z</time>
      </trkpt>
      <trkpt lat="43.99968" lon="3.48203">
        <ele>648.37586039269</ele>
        <time>2017-05-26T12:55:24Z</time>
      </trkpt>
      <trkpt lat="43.99993" lon="3.48188">
        <ele>649.21578994842</ele>
        <time>2017-05-26T12:55:55Z</time>
      </trkpt>
      <trkpt lat="43.99998" lon="3.48182">
        <ele>649.21578994842</ele>
        <time>2017-05-26T12:55:57Z</time>
      </trkpt>
      <trkpt lat="44.00011" lon="3.48176">
        <ele>649.79109413806</ele>
        <time>2017-05-26T12:56:11Z</time>
      </trkpt>
      <trkpt lat="44.00012" lon="3.48177">
        <ele>649.79109413806</ele>
        <time>2017-05-26T12:56:12Z</time>
      </trkpt>
      <trkpt lat="44.00039" lon="3.48244">
        <ele>650.44915368411</ele>
        <time>2017-05-26T12:57:09Z</time>
      </trkpt>
      <trkpt lat="44.00039" lon="3.48307">
        <ele>651.26780100802</ele>
        <time>2017-05-26T12:57:48Z</time>
      </trkpt>
      <trkpt lat="44.0004" lon="3.4832">
        <ele>651.98735588318</ele>
        <time>2017-05-26T12:57:57Z</time>
      </trkpt>
      <trkpt lat="44.00047" lon="3.48323">
        <ele>651.98735588318</ele>
        <time>2017-05-26T12:58:12Z</time>
      </trkpt>
      <trkpt lat="44.0005" lon="3.4833">
        <ele>653.08793256407</ele>
        <time>2017-05-26T12:58:17Z</time>
      </trkpt>
      <trkpt lat="44.0005" lon="3.48329">
        <ele>653.08793256407</ele>
        <time>2017-05-26T12:58:22Z</time>
      </trkpt>
      <trkpt lat="44.00046" lon="3.48325">
        <ele>653.08793256407</ele>
        <time>2017-05-26T12:58:27Z</time>
      </trkpt>
      <trkpt lat="44.00049" lon="3.48316">
        <ele>654.2911368236</ele>
        <time>2017-05-26T12:58:32Z</time>
      </trkpt>
      <trkpt lat="44.0005" lon="3.48308">
        <ele>654.2911368236</ele>
        <time>2017-05-26T12:58:37Z</time>
      </trkpt>
      <trkpt lat="44.00053" lon="3.48302">
        <ele>655.25192968767</ele>
        <time>2017-05-26T12:58:42Z</time>
      </trkpt>
      <trkpt lat="44.00056" lon="3.48297">
        <ele>655.25192968767</ele>
        <time>2017-05-26T12:58:47Z</time>
      </trkpt>
      <trkpt lat="44.00059" lon="3.48293">
        <ele>655.25192968767</ele>
        <time>2017-05-26T12:58:52Z</time>
      </trkpt>
      <trkpt lat="44.00059" lon="3.48287">
        <ele>656.11536444031</ele>
        <time>2017-05-26T12:58:57Z</time>
      </trkpt>
      <trkpt lat="44.00066" lon="3.48281">
        <ele>656.11536444031</ele>
        <time>2017-05-26T12:59:02Z</time>
      </trkpt>
      <trkpt lat="44.00068" lon="3.48273">
        <ele>656.83648387032</ele>
        <time>2017-05-26T12:59:07Z</time>
      </trkpt>
      <trkpt lat="44.00071" lon="3.4826">
        <ele>657.62558045014</ele>
        <time>2017-05-26T12:59:14Z</time>
      </trkpt>
      <trkpt lat="44.00071" lon="3.48258">
        <ele>657.62558045014</ele>
        <time>2017-05-26T12:59:17Z</time>
      </trkpt>
      <trkpt lat="44.00072" lon="3.48253">
        <ele>657.62558045014</ele>
        <time>2017-05-26T12:59:22Z</time>
      </trkpt>
      <trkpt lat="44.00075" lon="3.48246">
        <ele>658.71915795913</ele>
        <time>2017-05-26T12:59:37Z</time>
      </trkpt>
      <trkpt lat="44.00078" lon="3.48239">
        <ele>658.71915795913</ele>
        <time>2017-05-26T12:59:47Z</time>
      </trkpt>
      <trkpt lat="44.00107" lon="3.48182">
        <ele>660.49485195832</ele>
        <time>2017-05-26T13:00:27Z</time>
      </trkpt>
      <trkpt lat="44.00158" lon="3.48094">
        <ele>663.56135097041</ele>
        <time>2017-05-26T13:01:57Z</time>
      </trkpt>
      <trkpt lat="44.00168" lon="3.48143">
        <ele>668.63509787273</ele>
        <time>2017-05-26T13:03:58Z</time>
      </trkpt>
      <trkpt lat="44.00164" lon="3.48155">
        <ele>673.09484506556</ele>
        <time>2017-05-26T13:03:58Z</time>
      </trkpt>
      <trkpt lat="44.00144" lon="3.48194">
        <ele>677.17514500876</ele>
        <time>2017-05-26T13:04:32Z</time>
      </trkpt>
      <trkpt lat="44.00151" lon="3.48284">
        <ele>680.97576635209</ele>
        <time>2017-05-26T13:05:53Z</time>
      </trkpt>
      <trkpt lat="44.00154" lon="3.48287">
        <ele>680.97576635209</ele>
        <time>2017-05-26T13:05:57Z</time>
      </trkpt>
      <trkpt lat="44.00165" lon="3.48294">
        <ele>684.54534257228</ele>
        <time>2017-05-26T13:06:13Z</time>
      </trkpt>
      <trkpt lat="44.00165" lon="3.48294">
        <ele>684.54534257228</ele>
        <time>2017-05-26T13:06:17Z</time>
      </trkpt>
      <trkpt lat="44.0017" lon="3.48288">
        <ele>684.54534257228</ele>
        <time>2017-05-26T13:06:37Z</time>
      </trkpt>
      <trkpt lat="44.00169" lon="3.48284">
        <ele>687.71120897159</ele>
        <time>2017-05-26T13:06:42Z</time>
      </trkpt>
      <trkpt lat="44.00168" lon="3.48279">
        <ele>687.71120897159</ele>
        <time>2017-05-26T13:06:47Z</time>
      </trkpt>
      <trkpt lat="44.0017" lon="3.48273">
        <ele>687.71120897159</ele>
        <time>2017-05-26T13:06:52Z</time>
      </trkpt>
      <trkpt lat="44.00171" lon="3.48269">
        <ele>690.46015548993</ele>
        <time>2017-05-26T13:06:57Z</time>
      </trkpt>
      <trkpt lat="44.00172" lon="3.48263">
        <ele>690.46015548993</ele>
        <time>2017-05-26T13:07:02Z</time>
      </trkpt>
      <trkpt lat="44.00173" lon="3.48257">
        <ele>692.79531855545</ele>
        <time>2017-05-26T13:07:07Z</time>
      </trkpt>
      <trkpt lat="44.00172" lon="3.4825">
        <ele>692.79531855545</ele>
        <time>2017-05-26T13:07:12Z</time>
      </trkpt>
      <trkpt lat="44.00172" lon="3.48244">
        <ele>692.79531855545</ele>
        <time>2017-05-26T13:07:17Z</time>
      </trkpt>
      <trkpt lat="44.00171" lon="3.48241">
        <ele>694.64806488929</ele>
        <time>2017-05-26T13:07:22Z</time>
      </trkpt>
      <trkpt lat="44.00169" lon="3.48235">
        <ele>694.64806488929</ele>
        <time>2017-05-26T13:07:27Z</time>
      </trkpt>
      <trkpt lat="44.00167" lon="3.48228">
        <ele>696.21638611778</ele>
        <time>2017-05-26T13:07:32Z</time>
      </trkpt>
      <trkpt lat="44.00166" lon="3.48221">
        <ele>696.21638611778</ele>
        <time>2017-05-26T13:07:37Z</time>
      </trkpt>
      <trkpt lat="44.00167" lon="3.48213">
        <ele>697.53918547343</ele>
        <time>2017-05-26T13:07:42Z</time>
      </trkpt>
      <trkpt lat="44.0017" lon="3.48207">
        <ele>697.53918547343</ele>
        <time>2017-05-26T13:07:47Z</time>
      </trkpt>
      <trkpt lat="44.00177" lon="3.48195">
        <ele>698.60961256702</ele>
        <time>2017-05-26T13:08:05Z</time>
      </trkpt>
      <trkpt lat="44.0018" lon="3.48192">
        <ele>698.60961256702</ele>
        <time>2017-05-26T13:08:05Z</time>
      </trkpt>
      <trkpt lat="44.0018" lon="3.48191">
        <ele>698.60961256702</ele>
        <time>2017-05-26T13:08:08Z</time>
      </trkpt>
      <trkpt lat="44.00194" lon="3.48176">
        <ele>699.45077330606</ele>
        <time>2017-05-26T13:08:27Z</time>
      </trkpt>
      <trkpt lat="44.00264" lon="3.48103">
        <ele>701.31111656041</ele>
        <time>2017-05-26T13:10:42Z</time>
      </trkpt>
      <trkpt lat="44.00295" lon="3.48075">
        <ele>704.39090347203</ele>
        <time>2017-05-26T13:11:48Z</time>
      </trkpt>
      <trkpt lat="44.00311" lon="3.48049">
        <ele>707.64647023237</ele>
        <time>2017-05-26T13:11:48Z</time>
      </trkpt>
      <trkpt lat="44.00329" lon="3.4803">
        <ele>711.3369582535</ele>
        <time>2017-05-26T13:12:22Z</time>
      </trkpt>
      <trkpt lat="44.00333" lon="3.48027">
        <ele>711.3369582535</ele>
        <time>2017-05-26T13:12:22Z</time>
      </trkpt>
      <trkpt lat="44.00342" lon="3.48014">
        <ele>715.49924410596</ele>
        <time>2017-05-26T13:12:55Z</time>
      </trkpt>
      <trkpt lat="44.00376" lon="3.47993">
        <ele>719.24343125066</ele>
        <time>2017-05-26T13:13:27Z</time>
      </trkpt>
      <trkpt lat="44.00402" lon="3.47982">
        <ele>722.58250307334</ele>
        <time>2017-05-26T13:13:59Z</time>
      </trkpt>
      <trkpt lat="44.00429" lon="3.47977">
        <ele>725.86113479583</ele>
        <time>2017-05-26T13:14:52Z</time>
      </trkpt>
      <trkpt lat="44.00437" lon="3.47974">
        <ele>725.86113479583</ele>
        <time>2017-05-26T13:14:52Z</time>
      </trkpt>
      <trkpt lat="44.0042" lon="3.4803">
        <ele>730.55225519416</ele>
        <time>2017-05-26T13:16:32Z</time>
      </trkpt>
      <trkpt lat="44.00417" lon="3.48036">
        <ele>730.55225519416</ele>
        <time>2017-05-26T13:16:37Z</time>
      </trkpt>
      <trkpt lat="44.00413" lon="3.48041">
        <ele>735.320482609</ele>
        <time>2017-05-26T13:16:42Z</time>
      </trkpt>
      <trkpt lat="44.00409" lon="3.48046">
        <ele>735.320482609</ele>
        <time>2017-05-26T13:16:47Z</time>
      </trkpt>
      <trkpt lat="44.00393" lon="3.48068">
        <ele>740.02407145635</ele>
        <time>2017-05-26T13:17:20Z</time>
      </trkpt>
      <trkpt lat="44.00383" lon="3.48111">
        <ele>744.44534824419</ele>
        <time>2017-05-26T13:17:47Z</time>
      </trkpt>
      <trkpt lat="44.00384" lon="3.48121">
        <ele>744.44534824419</ele>
        <time>2017-05-26T13:17:47Z</time>
      </trkpt>
      <trkpt lat="44.00383" lon="3.48122">
        <ele>744.44534824419</ele>
        <time>2017-05-26T13:17:49Z</time>
      </trkpt>
      <trkpt lat="44.00391" lon="3.48131">
        <ele>748.55648303162</ele>
        <time>2017-05-26T13:17:59Z</time>
      </trkpt>
      <trkpt lat="44.00393" lon="3.48131">
        <ele>748.55648303162</ele>
        <time>2017-05-26T13:18:02Z</time>
      </trkpt>
      <trkpt lat="44.00418" lon="3.48118">
        <ele>753.3565727619</ele>
        <time>2017-05-26T13:18:44Z</time>
      </trkpt>
      <trkpt lat="44.00423" lon="3.48115">
        <ele>753.3565727619</ele>
        <time>2017-05-26T13:18:44Z</time>
      </trkpt>
      <trkpt lat="44.00462" lon="3.48098">
        <ele>758.39943228694</ele>
        <time>2017-05-26T13:19:36Z</time>
      </trkpt>
      <trkpt lat="44.00463" lon="3.48093">
        <ele>758.39943228694</ele>
        <time>2017-05-26T13:19:37Z</time>
      </trkpt>
      <trkpt lat="44.00463" lon="3.48092">
        <ele>758.39943228694</ele>
        <time>2017-05-26T13:19:42Z</time>
      </trkpt>
      <trkpt lat="44.0047" lon="3.48083">
        <ele>763.22772787259</ele>
        <time>2017-05-26T13:20:18Z</time>
      </trkpt>
      <trkpt lat="44.0047" lon="3.48083">
        <ele>763.22772787259</ele>
        <time>2017-05-26T13:20:32Z</time>
      </trkpt>
      <trkpt lat="44.00475" lon="3.48083">
        <ele>763.22772787259</ele>
        <time>2017-05-26T13:21:37Z</time>
      </trkpt>
      <trkpt lat="44.00475" lon="3.48082">
        <ele>763.22772787259</ele>
        <time>2017-05-26T13:21:42Z</time>
      </trkpt>
      <trkpt lat="44.00476" lon="3.48077">
        <ele>767.70686498488</ele>
        <time>2017-05-26T13:22:07Z</time>
      </trkpt>
      <trkpt lat="44.00479" lon="3.48077">
        <ele>767.70686498488</ele>
        <time>2017-05-26T13:22:12Z</time>
      </trkpt>
      <trkpt lat="44.00508" lon="3.48074">
        <ele>772.13153437036</ele>
        <time>2017-05-26T13:22:47Z</time>
      </trkpt>
      <trkpt lat="44.00645" lon="3.47998">
        <ele>776.84718541507</ele>
        <time>2017-05-26T13:25:23Z</time>
      </trkpt>
      <trkpt lat="44.00699" lon="3.4797">
        <ele>781.17790302354</ele>
        <time>2017-05-26T13:26:12Z</time>
      </trkpt>
      <trkpt lat="44.00705" lon="3.47966">
        <ele>781.17790302354</ele>
        <time>2017-05-26T13:26:17Z</time>
      </trkpt>
      <trkpt lat="44.00706" lon="3.47962">
        <ele>785.13335225966</ele>
        <time>2017-05-26T13:26:24Z</time>
      </trkpt>
      <trkpt lat="44.00706" lon="3.47962">
        <ele>785.13335225966</ele>
        <time>2017-05-26T13:26:27Z</time>
      </trkpt>
      <trkpt lat="44.00711" lon="3.47908">
        <ele>788.85350766537</ele>
        <time>2017-05-26T13:27:07Z</time>
      </trkpt>
      <trkpt lat="44.00711" lon="3.47906">
        <ele>788.85350766537</ele>
        <time>2017-05-26T13:27:07Z</time>
      </trkpt>
      <trkpt lat="44.00695" lon="3.47875">
        <ele>792.62751107346</ele>
        <time>2017-05-26T13:28:08Z</time>
      </trkpt>
      <trkpt lat="44.00659" lon="3.47833">
        <ele>795.98760687064</ele>
        <time>2017-05-26T13:28:16Z</time>
      </trkpt>
      <trkpt lat="44.00651" lon="3.47756">
        <ele>799.74214336798</ele>
        <time>2017-05-26T13:29:29Z</time>
      </trkpt>
      <trkpt lat="44.00655" lon="3.4775">
        <ele>799.74214336798</ele>
        <time>2017-05-26T13:29:29Z</time>
      </trkpt>
      <trkpt lat="44.00661" lon="3.47747">
        <ele>803.21113660505</ele>
        <time>2017-05-26T13:29:44Z</time>
      </trkpt>
      <trkpt lat="44.00667" lon="3.47744">
        <ele>803.21113660505</ele>
        <time>2017-05-26T13:29:53Z</time>
      </trkpt>
      <trkpt lat="44.00668" lon="3.47741">
        <ele>806.2992076877</ele>
        <time>2017-05-26T13:29:53Z</time>
      </trkpt>
      <trkpt lat="44.00658" lon="3.47704">
        <ele>809.2508681831</ele>
        <time>2017-05-26T13:30:24Z</time>
      </trkpt>
      <trkpt lat="44.00659" lon="3.47699">
        <ele>809.2508681831</ele>
        <time>2017-05-26T13:30:27Z</time>
      </trkpt>
      <trkpt lat="44.00677" lon="3.4759">
        <ele>812.84107083792</ele>
        <time>2017-05-26T13:32:32Z</time>
      </trkpt>
      <trkpt lat="44.0064" lon="3.47492">
        <ele>817.15151113602</ele>
        <time>2017-05-26T13:34:09Z</time>
      </trkpt>
      <trkpt lat="44.00624" lon="3.47492">
        <ele>820.95824136718</ele>
        <time>2017-05-26T13:34:10Z</time>
      </trkpt>
      <trkpt lat="44.00623" lon="3.47492">
        <ele>820.95824136718</ele>
        <time>2017-05-26T13:34:15Z</time>
      </trkpt>
      <trkpt lat="44.00614" lon="3.47491">
        <ele>824.83032239473</ele>
        <time>2017-05-26T13:34:30Z</time>
      </trkpt>
      <trkpt lat="44.00589" lon="3.47495">
        <ele>829.43897057315</ele>
        <time>2017-05-26T13:35:13Z</time>
      </trkpt>
      <trkpt lat="44.00576" lon="3.4749">
        <ele>833.94790454621</ele>
        <time>2017-05-26T13:35:13Z</time>
      </trkpt>
      <trkpt lat="44.00563" lon="3.47494">
        <ele>838.66400794688</ele>
        <time>2017-05-26T13:35:38Z</time>
      </trkpt>
      <trkpt lat="44.0056" lon="3.47492">
        <ele>838.66400794688</ele>
        <time>2017-05-26T13:35:38Z</time>
      </trkpt>
      <trkpt lat="44.00538" lon="3.47488">
        <ele>844.05847983491</ele>
        <time>2017-05-26T13:36:17Z</time>
      </trkpt>
      <trkpt lat="44.00534" lon="3.47486">
        <ele>844.05847983491</ele>
        <time>2017-05-26T13:36:23Z</time>
      </trkpt>
      <trkpt lat="44.00532" lon="3.47485">
        <ele>844.05847983491</ele>
        <time>2017-05-26T13:36:27Z</time>
      </trkpt>
      <trkpt lat="44.0053" lon="3.47482">
        <ele>849.1389660681</ele>
        <time>2017-05-26T13:36:32Z</time>
      </trkpt>
      <trkpt lat="44.00527" lon="3.4748">
        <ele>849.1389660681</ele>
        <time>2017-05-26T13:36:37Z</time>
      </trkpt>
      <trkpt lat="44.00524" lon="3.47483">
        <ele>849.1389660681</ele>
        <time>2017-05-26T13:36:44Z</time>
      </trkpt>
      <trkpt lat="44.00523" lon="3.47484">
        <ele>849.1389660681</ele>
        <time>2017-05-26T13:36:47Z</time>
      </trkpt>
      <trkpt lat="44.00523" lon="3.47484">
        <ele>849.1389660681</ele>
        <time>2017-05-26T13:36:52Z</time>
      </trkpt>
      <trkpt lat="44.00525" lon="3.47491">
        <ele>856.7492727075</ele>
        <time>2017-05-26T13:38:47Z</time>
      </trkpt>
      <trkpt lat="44.00516" lon="3.47495">
        <ele>856.7492727075</ele>
        <time>2017-05-26T13:38:57Z</time>
      </trkpt>
      <trkpt lat="44.00513" lon="3.47498">
        <ele>863.70820271345</ele>
        <time>2017-05-26T13:39:04Z</time>
      </trkpt>
      <trkpt lat="44.00504" lon="3.475">
        <ele>863.70820271345</ele>
        <time>2017-05-26T13:39:32Z</time>
      </trkpt>
      <trkpt lat="44.00537" lon="3.47455">
        <ele>871.07752646964</ele>
        <time>2017-05-26T13:41:00Z</time>
      </trkpt>
      <trkpt lat="44.00559" lon="3.47432">
        <ele>879.20573268232</ele>
        <time>2017-05-26T13:41:56Z</time>
      </trkpt>
      <trkpt lat="44.00568" lon="3.47421">
        <ele>886.91482221041</ele>
        <time>2017-05-26T13:42:11Z</time>
      </trkpt>
      <trkpt lat="44.00575" lon="3.47409">
        <ele>893.89306656151</ele>
        <time>2017-05-26T13:42:11Z</time>
      </trkpt>
      <trkpt lat="44.00576" lon="3.47409">
        <ele>893.89306656151</ele>
        <time>2017-05-26T13:42:12Z</time>
      </trkpt>
      <trkpt lat="44.00582" lon="3.47399">
        <ele>900.25744820105</ele>
        <time>2017-05-26T13:42:28Z</time>
      </trkpt>
      <trkpt lat="44.00583" lon="3.47396">
        <ele>900.25744820105</ele>
        <time>2017-05-26T13:42:28Z</time>
      </trkpt>
      <trkpt lat="44.0059" lon="3.47386">
        <ele>906.26240187668</ele>
        <time>2017-05-26T13:42:57Z</time>
      </trkpt>
      <trkpt lat="44.00598" lon="3.47382">
        <ele>911.94312489528</ele>
        <time>2017-05-26T13:43:12Z</time>
      </trkpt>
      <trkpt lat="44.00617" lon="3.47358">
        <ele>917.5639460642</ele>
        <time>2017-05-26T13:44:08Z</time>
      </trkpt>
      <trkpt lat="44.00618" lon="3.47353">
        <ele>917.5639460642</ele>
        <time>2017-05-26T13:44:08Z</time>
      </trkpt>
      <trkpt lat="44.00654" lon="3.47324">
        <ele>922.83693673325</ele>
        <time>2017-05-26T13:45:08Z</time>
      </trkpt>
      <trkpt lat="44.00657" lon="3.47322">
        <ele>922.83693673325</ele>
        <time>2017-05-26T13:45:08Z</time>
      </trkpt>
      <trkpt lat="44.00669" lon="3.47311">
        <ele>929.39882226836</ele>
        <time>2017-05-26T13:45:34Z</time>
      </trkpt>
      <trkpt lat="44.00673" lon="3.47307">
        <ele>929.39882226836</ele>
        <time>2017-05-26T13:45:34Z</time>
      </trkpt>
      <trkpt lat="44.00692" lon="3.47271">
        <ele>937.53771545948</ele>
        <time>2017-05-26T13:46:33Z</time>
      </trkpt>
      <trkpt lat="44.00696" lon="3.47266">
        <ele>937.53771545948</ele>
        <time>2017-05-26T13:46:33Z</time>
      </trkpt>
      <trkpt lat="44.00699" lon="3.47253">
        <ele>945.48438147658</ele>
        <time>2017-05-26T13:46:47Z</time>
      </trkpt>
      <trkpt lat="44.00699" lon="3.47246">
        <ele>945.48438147658</ele>
        <time>2017-05-26T13:46:52Z</time>
      </trkpt>
      <trkpt lat="44.00699" lon="3.47241">
        <ele>945.48438147658</ele>
        <time>2017-05-26T13:46:57Z</time>
      </trkpt>
      <trkpt lat="44.00698" lon="3.47241">
        <ele>952.7244162296</ele>
        <time>2017-05-26T13:47:07Z</time>
      </trkpt>
      <trkpt lat="44.00698" lon="3.47241">
        <ele>952.7244162296</ele>
        <time>2017-05-26T13:47:12Z</time>
      </trkpt>
      <trkpt lat="44.00713" lon="3.47242">
        <ele>958.95635717018</ele>
        <time>2017-05-26T13:48:02Z</time>
      </trkpt>
      <trkpt lat="44.00719" lon="3.47243">
        <ele>958.95635717018</ele>
        <time>2017-05-26T13:48:07Z</time>
      </trkpt>
      <trkpt lat="44.00729" lon="3.47244">
        <ele>964.45158004837</ele>
        <time>2017-05-26T13:48:17Z</time>
      </trkpt>
      <trkpt lat="44.00734" lon="3.47242">
        <ele>964.45158004837</ele>
        <time>2017-05-26T13:48:22Z</time>
      </trkpt>
      <trkpt lat="44.00737" lon="3.47241">
        <ele>964.45158004837</ele>
        <time>2017-05-26T13:48:27Z</time>
      </trkpt>
      <trkpt lat="44.00755" lon="3.47233">
        <ele>969.27648029357</ele>
        <time>2017-05-26T13:48:42Z</time>
      </trkpt>
      <trkpt lat="44.0078" lon="3.47222">
        <ele>973.59556051909</ele>
        <time>2017-05-26T13:49:02Z</time>
      </trkpt>
      <trkpt lat="44.00788" lon="3.47216">
        <ele>977.2602300159</ele>
        <time>2017-05-26T13:49:10Z</time>
      </trkpt>
      <trkpt lat="44.00806" lon="3.47209">
        <ele>980.29336146974</ele>
        <time>2017-05-26T13:49:25Z</time>
      </trkpt>
      <trkpt lat="44.00808" lon="3.47207">
        <ele>980.29336146974</ele>
        <time>2017-05-26T13:49:27Z</time>
      </trkpt>
      <trkpt lat="44.00817" lon="3.47199">
        <ele>982.77572766024</ele>
        <time>2017-05-26T13:49:46Z</time>
      </trkpt>
      <trkpt lat="44.0088" lon="3.47164">
        <ele>986.03764154167</ele>
        <time>2017-05-26T13:50:53Z</time>
      </trkpt>
      <trkpt lat="44.0089" lon="3.47165">
        <ele>988.77320877627</ele>
        <time>2017-05-26T13:50:53Z</time>
      </trkpt>
      <trkpt lat="44.00897" lon="3.47168">
        <ele>988.77320877627</ele>
        <time>2017-05-26T13:51:09Z</time>
      </trkpt>
      <trkpt lat="44.00906" lon="3.47172">
        <ele>990.92693200262</ele>
        <time>2017-05-26T13:51:09Z</time>
      </trkpt>
      <trkpt lat="44.00924" lon="3.47186">
        <ele>992.75171553123</ele>
        <time>2017-05-26T13:51:32Z</time>
      </trkpt>
      <trkpt lat="44.00928" lon="3.47187">
        <ele>992.75171553123</ele>
        <time>2017-05-26T13:51:37Z</time>
      </trkpt>
      <trkpt lat="44.00956" lon="3.47207">
        <ele>994.75665121575</ele>
        <time>2017-05-26T13:52:11Z</time>
      </trkpt>
      <trkpt lat="44.01031" lon="3.47176">
        <ele>997.81644787899</ele>
        <time>2017-05-26T13:53:30Z</time>
      </trkpt>
      <trkpt lat="44.01032" lon="3.47167">
        <ele>997.81644787899</ele>
        <time>2017-05-26T13:53:32Z</time>
      </trkpt>
      <trkpt lat="44.01052" lon="3.47123">
        <ele>1000.8362570883</ele>
        <time>2017-05-26T13:54:06Z</time>
      </trkpt>
      <trkpt lat="44.01054" lon="3.47103">
        <ele>1003.4214179455</ele>
        <time>2017-05-26T13:54:23Z</time>
      </trkpt>
      <trkpt lat="44.01061" lon="3.47094">
        <ele>1005.5821162579</ele>
        <time>2017-05-26T13:54:23Z</time>
      </trkpt>
      <trkpt lat="44.01069" lon="3.47087">
        <ele>1007.2856653818</ele>
        <time>2017-05-26T13:54:37Z</time>
      </trkpt>
      <trkpt lat="44.01074" lon="3.47078">
        <ele>1007.2856653818</ele>
        <time>2017-05-26T13:54:40Z</time>
      </trkpt>
      <trkpt lat="44.0109" lon="3.4706">
        <ele>1008.8056042199</ele>
        <time>2017-05-26T13:55:00Z</time>
      </trkpt>
      <trkpt lat="44.01113" lon="3.46988">
        <ele>1009.631965053</ele>
        <time>2017-05-26T13:55:35Z</time>
      </trkpt>
      <trkpt lat="44.01116" lon="3.46983">
        <ele>1009.631965053</ele>
        <time>2017-05-26T13:55:37Z</time>
      </trkpt>
      <trkpt lat="44.01126" lon="3.46948">
        <ele>1009.9281517406</ele>
        <time>2017-05-26T13:56:01Z</time>
      </trkpt>
      <trkpt lat="44.01131" lon="3.46936">
        <ele>1009.9333540194</ele>
        <time>2017-05-26T13:56:20Z</time>
      </trkpt>
      <trkpt lat="44.01136" lon="3.46923">
        <ele>1009.797758311</ele>
        <time>2017-05-26T13:56:20Z</time>
      </trkpt>
      <trkpt lat="44.01153" lon="3.46883">
        <ele>1009.6895195999</ele>
        <time>2017-05-26T13:56:54Z</time>
      </trkpt>
      <trkpt lat="44.01157" lon="3.46868">
        <ele>1009.3606042641</ele>
        <time>2017-05-26T13:56:54Z</time>
      </trkpt>
      <trkpt lat="44.01194" lon="3.46839">
        <ele>1007.9474558839</ele>
        <time>2017-05-26T13:57:22Z</time>
      </trkpt>
      <trkpt lat="44.01198" lon="3.46805">
        <ele>1005.7335600589</ele>
        <time>2017-05-26T13:57:56Z</time>
      </trkpt>
      <trkpt lat="44.01233" lon="3.46767">
        <ele>1005.4622528603</ele>
        <time>2017-05-26T13:58:53Z</time>
      </trkpt>
      <trkpt lat="44.01239" lon="3.46747">
        <ele>1005.5190984285</ele>
        <time>2017-05-26T13:59:18Z</time>
      </trkpt>
      <trkpt lat="44.01244" lon="3.46741">
        <ele>1005.5190984285</ele>
        <time>2017-05-26T13:59:18Z</time>
      </trkpt>
      <trkpt lat="44.01249" lon="3.46736">
        <ele>1005.7616525251</ele>
        <time>2017-05-26T13:59:34Z</time>
      </trkpt>
      <trkpt lat="44.01262" lon="3.4673">
        <ele>1006.0714642429</ele>
        <time>2017-05-26T13:59:34Z</time>
      </trkpt>
      <trkpt lat="44.01265" lon="3.46725">
        <ele>1006.0714642429</ele>
        <time>2017-05-26T13:59:37Z</time>
      </trkpt>
      <trkpt lat="44.0127" lon="3.46711">
        <ele>1006.4102855175</ele>
        <time>2017-05-26T13:59:50Z</time>
      </trkpt>
      <trkpt lat="44.01295" lon="3.46675">
        <ele>1006.8431063919</ele>
        <time>2017-05-26T14:00:16Z</time>
      </trkpt>
      <trkpt lat="44.01307" lon="3.46663">
        <ele>1007.0692292344</ele>
        <time>2017-05-26T14:00:27Z</time>
      </trkpt>
      <trkpt lat="44.01304" lon="3.4665">
        <ele>1006.983190861</ele>
        <time>2017-05-26T14:01:00Z</time>
      </trkpt>
      <trkpt lat="44.01297" lon="3.46639">
        <ele>1006.9057059753</ele>
        <time>2017-05-26T14:01:00Z</time>
      </trkpt>
      <trkpt lat="44.01257" lon="3.46587">
        <ele>1006.6291449613</ele>
        <time>2017-05-26T14:02:00Z</time>
      </trkpt>
      <trkpt lat="44.01214" lon="3.46563">
        <ele>1006.4513000247</ele>
        <time>2017-05-26T14:02:28Z</time>
      </trkpt>
      <trkpt lat="44.01211" lon="3.46567">
        <ele>1006.4513000247</ele>
        <time>2017-05-26T14:02:32Z</time>
      </trkpt>
      <trkpt lat="44.01183" lon="3.46548">
        <ele>1005.6963054583</ele>
        <time>2017-05-26T14:03:08Z</time>
      </trkpt>
      <trkpt lat="44.0116" lon="3.46555">
        <ele>1004.7479749588</ele>
        <time>2017-05-26T14:03:29Z</time>
      </trkpt>
      <trkpt lat="44.01148" lon="3.46557">
        <ele>1003.7315207104</ele>
        <time>2017-05-26T14:03:35Z</time>
      </trkpt>
      <trkpt lat="44.01097" lon="3.46547">
        <ele>1002.5177867647</ele>
        <time>2017-05-26T14:04:20Z</time>
      </trkpt>
      <trkpt lat="44.01079" lon="3.46555">
        <ele>1001.275507234</ele>
        <time>2017-05-26T14:04:42Z</time>
      </trkpt>
      <trkpt lat="44.01048" lon="3.46555">
        <ele>999.88691418556</ele>
        <time>2017-05-26T14:04:58Z</time>
      </trkpt>
      <trkpt lat="44.01046" lon="3.46555">
        <ele>999.88691418556</ele>
        <time>2017-05-26T14:04:59Z</time>
      </trkpt>
      <trkpt lat="44.00999" lon="3.46539">
        <ele>998.15645732135</ele>
        <time>2017-05-26T14:05:49Z</time>
      </trkpt>
      <trkpt lat="44.0099" lon="3.46531">
        <ele>996.40792073206</ele>
        <time>2017-05-26T14:05:49Z</time>
      </trkpt>
      <trkpt lat="44.00978" lon="3.46525">
        <ele>994.72480703465</ele>
        <time>2017-05-26T14:06:05Z</time>
      </trkpt>
      <trkpt lat="44.00974" lon="3.46521">
        <ele>994.72480703465</ele>
        <time>2017-05-26T14:06:05Z</time>
      </trkpt>
      <trkpt lat="44.00973" lon="3.4652">
        <ele>994.72480703465</ele>
        <time>2017-05-26T14:06:06Z</time>
      </trkpt>
      <trkpt lat="44.0092" lon="3.46391">
        <ele>992.0310286879</ele>
        <time>2017-05-26T14:07:32Z</time>
      </trkpt>
      <trkpt lat="44.00917" lon="3.46384">
        <ele>992.0310286879</ele>
        <time>2017-05-26T14:07:37Z</time>
      </trkpt>
      <trkpt lat="44.00917" lon="3.46368">
        <ele>989.58013142684</ele>
        <time>2017-05-26T14:08:08Z</time>
      </trkpt>
      <trkpt lat="44.00918" lon="3.46367">
        <ele>989.58013142684</ele>
        <time>2017-05-26T14:09:09Z</time>
      </trkpt>
      <trkpt lat="44.00999" lon="3.46357">
        <ele>989.0801324433</ele>
        <time>2017-05-26T14:10:27Z</time>
      </trkpt>
      <trkpt lat="44.01044" lon="3.46344">
        <ele>989.94605831926</ele>
        <time>2017-05-26T14:11:32Z</time>
      </trkpt>
      <trkpt lat="44.01046" lon="3.46342">
        <ele>989.94605831926</ele>
        <time>2017-05-26T14:11:40Z</time>
      </trkpt>
      <trkpt lat="44.01059" lon="3.46338">
        <ele>991.08408457616</ele>
        <time>2017-05-26T14:11:56Z</time>
      </trkpt>
      <trkpt lat="44.01073" lon="3.46329">
        <ele>992.70457184312</ele>
        <time>2017-05-26T14:12:05Z</time>
      </trkpt>
      <trkpt lat="44.01098" lon="3.46321">
        <ele>994.48195162844</ele>
        <time>2017-05-26T14:12:23Z</time>
      </trkpt>
      <trkpt lat="44.0112" lon="3.46312">
        <ele>996.84880620509</ele>
        <time>2017-05-26T14:12:55Z</time>
      </trkpt>
      <trkpt lat="44.01124" lon="3.46311">
        <ele>996.84880620509</ele>
        <time>2017-05-26T14:12:55Z</time>
      </trkpt>
      <trkpt lat="44.01126" lon="3.46311">
        <ele>996.84880620509</ele>
        <time>2017-05-26T14:12:56Z</time>
      </trkpt>
      <trkpt lat="44.0119" lon="3.46287">
        <ele>1002.6683337432</ele>
        <time>2017-05-26T14:14:00Z</time>
      </trkpt>
      <trkpt lat="44.01233" lon="3.46276">
        <ele>1006.916783011</ele>
        <time>2017-05-26T14:15:30Z</time>
      </trkpt>
      <trkpt lat="44.01234" lon="3.46273">
        <ele>1006.916783011</ele>
        <time>2017-05-26T14:15:30Z</time>
      </trkpt>
      <trkpt lat="44.01237" lon="3.4627">
        <ele>1006.916783011</ele>
        <time>2017-05-26T14:15:32Z</time>
      </trkpt>
      <trkpt lat="44.01252" lon="3.46256">
        <ele>1010.9242945784</ele>
        <time>2017-05-26T14:15:54Z</time>
      </trkpt>
      <trkpt lat="44.01272" lon="3.46145">
        <ele>1013.8054062926</ele>
        <time>2017-05-26T14:17:08Z</time>
      </trkpt>
      <trkpt lat="44.01277" lon="3.46136">
        <ele>1013.8054062926</ele>
        <time>2017-05-26T14:17:08Z</time>
      </trkpt>
      <trkpt lat="44.01316" lon="3.46094">
        <ele>1016.4288696209</ele>
        <time>2017-05-26T14:18:00Z</time>
      </trkpt>
      <trkpt lat="44.01353" lon="3.46031">
        <ele>1019.0094215084</ele>
        <time>2017-05-26T14:18:51Z</time>
      </trkpt>
      <trkpt lat="44.01353" lon="3.4603">
        <ele>1019.0094215084</ele>
        <time>2017-05-26T14:18:52Z</time>
      </trkpt>
      <trkpt lat="44.01355" lon="3.46021">
        <ele>1019.0094215084</ele>
        <time>2017-05-26T14:18:57Z</time>
      </trkpt>
      <trkpt lat="44.01364" lon="3.45965">
        <ele>1021.4002393566</ele>
        <time>2017-05-26T14:19:32Z</time>
      </trkpt>
      <trkpt lat="44.01381" lon="3.45934">
        <ele>1023.7684340967</ele>
        <time>2017-05-26T14:20:09Z</time>
      </trkpt>
      <trkpt lat="44.0139" lon="3.45923">
        <ele>1026.3986051196</ele>
        <time>2017-05-26T14:20:18Z</time>
      </trkpt>
      <trkpt lat="44.01378" lon="3.4602">
        <ele>1032.9115272957</ele>
        <time>2017-05-26T14:21:56Z</time>
      </trkpt>
      <trkpt lat="44.01378" lon="3.46028">
        <ele>1032.9115272957</ele>
        <time>2017-05-26T14:21:57Z</time>
      </trkpt>
      <trkpt lat="44.01379" lon="3.46042">
        <ele>1039.3303027076</ele>
        <time>2017-05-26T14:22:16Z</time>
      </trkpt>
      <trkpt lat="44.01377" lon="3.46054">
        <ele>1039.3303027076</ele>
        <time>2017-05-26T14:22:16Z</time>
      </trkpt>
      <trkpt lat="44.01371" lon="3.46074">
        <ele>1045.9624058092</ele>
        <time>2017-05-26T14:22:33Z</time>
      </trkpt>
      <trkpt lat="44.01369" lon="3.46075">
        <ele>1045.9624058092</ele>
        <time>2017-05-26T14:22:33Z</time>
      </trkpt>
      <trkpt lat="44.0136" lon="3.46086">
        <ele>1052.3428713106</ele>
        <time>2017-05-26T14:22:50Z</time>
      </trkpt>
      <trkpt lat="44.01355" lon="3.46094">
        <ele>1052.3428713106</ele>
        <time>2017-05-26T14:22:50Z</time>
      </trkpt>
      <trkpt lat="44.01334" lon="3.46153">
        <ele>1059.2234736981</ele>
        <time>2017-05-26T14:23:28Z</time>
      </trkpt>
      <trkpt lat="44.01336" lon="3.46161">
        <ele>1059.2234736981</ele>
        <time>2017-05-26T14:23:32Z</time>
      </trkpt>
      <trkpt lat="44.01341" lon="3.46192">
        <ele>1065.9737394281</ele>
        <time>2017-05-26T14:23:49Z</time>
      </trkpt>
      <trkpt lat="44.01355" lon="3.46246">
        <ele>1072.9900702718</ele>
        <time>2017-05-26T14:24:42Z</time>
      </trkpt>
      <trkpt lat="44.01353" lon="3.46253">
        <ele>1072.9900702718</ele>
        <time>2017-05-26T14:24:42Z</time>
      </trkpt>
      <trkpt lat="44.01318" lon="3.46359">
        <ele>1080.5383969823</ele>
        <time>2017-05-26T14:25:58Z</time>
      </trkpt>
      <trkpt lat="44.01329" lon="3.46402">
        <ele>1086.8175459476</ele>
        <time>2017-05-26T14:26:24Z</time>
      </trkpt>
      <trkpt lat="44.0134" lon="3.46421">
        <ele>1092.2809798835</ele>
        <time>2017-05-26T14:26:54Z</time>
      </trkpt>
      <trkpt lat="44.01353" lon="3.46441">
        <ele>1097.0632623928</ele>
        <time>2017-05-26T14:27:08Z</time>
      </trkpt>
      <trkpt lat="44.01373" lon="3.46459">
        <ele>1101.3489844585</ele>
        <time>2017-05-26T14:27:29Z</time>
      </trkpt>
      <trkpt lat="44.01376" lon="3.46458">
        <ele>1101.3489844585</ele>
        <time>2017-05-26T14:27:32Z</time>
      </trkpt>
      <trkpt lat="44.01407" lon="3.46467">
        <ele>1104.8641846265</ele>
        <time>2017-05-26T14:28:02Z</time>
      </trkpt>
      <trkpt lat="44.01505" lon="3.46454">
        <ele>1107.4151865746</ele>
        <time>2017-05-26T14:29:34Z</time>
      </trkpt>
      <trkpt lat="44.01521" lon="3.46438">
        <ele>1109.8343676657</ele>
        <time>2017-05-26T14:29:57Z</time>
      </trkpt>
      <trkpt lat="44.01524" lon="3.46436">
        <ele>1109.8343676657</ele>
        <time>2017-05-26T14:29:57Z</time>
      </trkpt>
      <trkpt lat="44.01541" lon="3.46426">
        <ele>1112.8648354258</ele>
        <time>2017-05-26T14:30:27Z</time>
      </trkpt>
      <trkpt lat="44.01572" lon="3.46415">
        <ele>1115.7381828667</ele>
        <time>2017-05-26T14:31:06Z</time>
      </trkpt>
      <trkpt lat="44.01575" lon="3.46415">
        <ele>1115.7381828667</ele>
        <time>2017-05-26T14:31:06Z</time>
      </trkpt>
      <trkpt lat="44.01585" lon="3.46443">
        <ele>1118.9825418172</ele>
        <time>2017-05-26T14:31:27Z</time>
      </trkpt>
      <trkpt lat="44.01588" lon="3.46462">
        <ele>1122.0200640173</ele>
        <time>2017-05-26T14:31:48Z</time>
      </trkpt>
      <trkpt lat="44.0159" lon="3.46465">
        <ele>1122.0200640173</ele>
        <time>2017-05-26T14:31:48Z</time>
      </trkpt>
      <trkpt lat="44.01586" lon="3.46557">
        <ele>1127.0110780394</ele>
        <time>2017-05-26T14:33:36Z</time>
      </trkpt>
      <trkpt lat="44.01595" lon="3.4662">
        <ele>1131.8736504801</ele>
        <time>2017-05-26T14:33:37Z</time>
      </trkpt>
      <trkpt lat="44.01596" lon="3.46622">
        <ele>1131.8736504801</ele>
        <time>2017-05-26T14:33:42Z</time>
      </trkpt>
      <trkpt lat="44.01598" lon="3.46634">
        <ele>1136.279035877</ele>
        <time>2017-05-26T14:34:27Z</time>
      </trkpt>
      <trkpt lat="44.01598" lon="3.46638">
        <ele>1136.279035877</ele>
        <time>2017-05-26T14:34:32Z</time>
      </trkpt>
      <trkpt lat="44.01599" lon="3.46645">
        <ele>1136.279035877</ele>
        <time>2017-05-26T14:34:37Z</time>
      </trkpt>
      <trkpt lat="44.01601" lon="3.46646">
        <ele>1140.1547508044</ele>
        <time>2017-05-26T14:34:42Z</time>
      </trkpt>
      <trkpt lat="44.01604" lon="3.46642">
        <ele>1140.1547508044</ele>
        <time>2017-05-26T14:34:47Z</time>
      </trkpt>
      <trkpt lat="44.01607" lon="3.46637">
        <ele>1140.1547508044</ele>
        <time>2017-05-26T14:34:52Z</time>
      </trkpt>
      <trkpt lat="44.01615" lon="3.46591">
        <ele>1143.6803593988</ele>
        <time>2017-05-26T14:35:26Z</time>
      </trkpt>
      <trkpt lat="44.01615" lon="3.46589">
        <ele>1143.6803593988</ele>
        <time>2017-05-26T14:35:27Z</time>
      </trkpt>
      <trkpt lat="44.01627" lon="3.46537">
        <ele>1146.7640573501</ele>
        <time>2017-05-26T14:36:05Z</time>
      </trkpt>
      <trkpt lat="44.01647" lon="3.46477">
        <ele>1149.5528304549</ele>
        <time>2017-05-26T14:36:59Z</time>
      </trkpt>
      <trkpt lat="44.01662" lon="3.46373">
        <ele>1152.299197813</ele>
        <time>2017-05-26T14:38:05Z</time>
      </trkpt>
      <trkpt lat="44.01666" lon="3.46343">
        <ele>1154.7618790059</ele>
        <time>2017-05-26T14:38:26Z</time>
      </trkpt>
      <trkpt lat="44.01666" lon="3.46342">
        <ele>1154.7618790059</ele>
        <time>2017-05-26T14:38:27Z</time>
      </trkpt>
      <trkpt lat="44.0165" lon="3.46287">
        <ele>1157.1650393116</ele>
        <time>2017-05-26T14:39:12Z</time>
      </trkpt>
      <trkpt lat="44.01633" lon="3.4628">
        <ele>1159.342017712</ele>
        <time>2017-05-26T14:39:23Z</time>
      </trkpt>
      <trkpt lat="44.01633" lon="3.46279">
        <ele>1159.342017712</ele>
        <time>2017-05-26T14:39:27Z</time>
      </trkpt>
      <trkpt lat="44.01618" lon="3.46233">
        <ele>1161.5282752251</ele>
        <time>2017-05-26T14:40:21Z</time>
      </trkpt>
      <trkpt lat="44.01634" lon="3.4615">
        <ele>1164.4032332372</ele>
        <time>2017-05-26T14:41:30Z</time>
      </trkpt>
      <trkpt lat="44.01638" lon="3.46086">
        <ele>1167.6146276293</ele>
        <time>2017-05-26T14:42:22Z</time>
      </trkpt>
      <trkpt lat="44.01687" lon="3.46053">
        <ele>1172.0889965285</ele>
        <time>2017-05-26T14:43:27Z</time>
      </trkpt>
      <trkpt lat="44.01688" lon="3.46053">
        <ele>1172.0889965285</ele>
        <time>2017-05-26T14:43:39Z</time>
      </trkpt>
      <trkpt lat="44.0171" lon="3.46046">
        <ele>1177.8167027558</ele>
        <time>2017-05-26T14:44:30Z</time>
      </trkpt>
      <trkpt lat="44.01873" lon="3.4603">
        <ele>1187.1632411094</ele>
        <time>2017-05-26T14:47:05Z</time>
      </trkpt>
      <trkpt lat="44.01881" lon="3.46024">
        <ele>1187.1632411094</ele>
        <time>2017-05-26T14:47:05Z</time>
      </trkpt>
      <trkpt lat="44.01908" lon="3.45998">
        <ele>1196.3296961457</ele>
        <time>2017-05-26T14:47:37Z</time>
      </trkpt>
      <trkpt lat="44.01919" lon="3.45982">
        <ele>1205.2267189855</ele>
        <time>2017-05-26T14:47:49Z</time>
      </trkpt>
      <trkpt lat="44.0192" lon="3.45978">
        <ele>1205.2267189855</ele>
        <time>2017-05-26T14:47:52Z</time>
      </trkpt>
      <trkpt lat="44.01921" lon="3.45971">
        <ele>1205.2267189855</ele>
        <time>2017-05-26T14:47:57Z</time>
      </trkpt>
      <trkpt lat="44.01952" lon="3.45923">
        <ele>1214.6803631325</ele>
        <time>2017-05-26T14:48:51Z</time>
      </trkpt>
      <trkpt lat="44.01966" lon="3.45911">
        <ele>1223.1056428769</ele>
        <time>2017-05-26T14:48:51Z</time>
      </trkpt>
      <trkpt lat="44.01971" lon="3.45903">
        <ele>1223.1056428769</ele>
        <time>2017-05-26T14:49:09Z</time>
      </trkpt>
      <trkpt lat="44.01969" lon="3.45889">
        <ele>1230.8961670631</ele>
        <time>2017-05-26T14:49:09Z</time>
      </trkpt>
      <trkpt lat="44.01927" lon="3.45679">
        <ele>1238.3610320876</ele>
        <time>2017-05-26T14:51:57Z</time>
      </trkpt>
      <trkpt lat="44.01908" lon="3.45682">
        <ele>1245.0384446412</ele>
        <time>2017-05-26T14:52:18Z</time>
      </trkpt>
      <trkpt lat="44.01905" lon="3.45681">
        <ele>1245.0384446412</ele>
        <time>2017-05-26T14:52:28Z</time>
      </trkpt>
      <trkpt lat="44.01904" lon="3.4568">
        <ele>1245.0384446412</ele>
        <time>2017-05-26T14:52:32Z</time>
      </trkpt>
      <trkpt lat="44.01904" lon="3.45675">
        <ele>1245.0384446412</ele>
        <time>2017-05-26T14:52:37Z</time>
      </trkpt>
      <trkpt lat="44.01908" lon="3.45674">
        <ele>1251.2235881747</ele>
        <time>2017-05-26T14:52:42Z</time>
      </trkpt>
      <trkpt lat="44.01909" lon="3.45673">
        <ele>1251.2235881747</ele>
        <time>2017-05-26T14:52:47Z</time>
      </trkpt>
      <trkpt lat="44.01913" lon="3.45663">
        <ele>1256.7304776853</ele>
        <time>2017-05-26T14:52:52Z</time>
      </trkpt>
      <trkpt lat="44.01915" lon="3.45662">
        <ele>1256.7304776853</ele>
        <time>2017-05-26T14:52:57Z</time>
      </trkpt>
      <trkpt lat="44.01914" lon="3.45662">
        <ele>1256.7304776853</ele>
        <time>2017-05-26T14:53:02Z</time>
      </trkpt>
      <trkpt lat="44.01913" lon="3.45652">
        <ele>1260.6395992833</ele>
        <time>2017-05-26T14:53:32Z</time>
      </trkpt>
      <trkpt lat="44.01914" lon="3.45649">
        <ele>1260.6395992833</ele>
        <time>2017-05-26T14:53:37Z</time>
      </trkpt>
      <trkpt lat="44.01917" lon="3.45645">
        <ele>1260.6395992833</ele>
        <time>2017-05-26T14:53:42Z</time>
      </trkpt>
      <trkpt lat="44.01917" lon="3.45646">
        <ele>1260.6395992833</ele>
        <time>2017-05-26T14:53:47Z</time>
      </trkpt>
      <trkpt lat="44.01921" lon="3.45638">
        <ele>1263.962773277</ele>
        <time>2017-05-26T14:53:57Z</time>
      </trkpt>
      <trkpt lat="44.01922" lon="3.45637">
        <ele>1263.962773277</ele>
        <time>2017-05-26T14:54:03Z</time>
      </trkpt>
      <trkpt lat="44.01988" lon="3.45603">
        <ele>1267.3655767807</ele>
        <time>2017-05-26T14:55:09Z</time>
      </trkpt>
      <trkpt lat="44.0203" lon="3.45582">
        <ele>1272.0555571694</ele>
        <time>2017-05-26T14:55:52Z</time>
      </trkpt>
      <trkpt lat="44.02036" lon="3.45575">
        <ele>1272.0555571694</ele>
        <time>2017-05-26T14:55:57Z</time>
      </trkpt>
      <trkpt lat="44.0207" lon="3.45553">
        <ele>1277.4620547445</ele>
        <time>2017-05-26T14:56:43Z</time>
      </trkpt>
      <trkpt lat="44.02069" lon="3.45552">
        <ele>1277.4620547445</ele>
        <time>2017-05-26T14:56:43Z</time>
      </trkpt>
      <trkpt lat="44.02071" lon="3.45543">
        <ele>1277.4620547445</ele>
        <time>2017-05-26T14:56:52Z</time>
      </trkpt>
      <trkpt lat="44.0209" lon="3.45536">
        <ele>1283.1986254529</ele>
        <time>2017-05-26T14:57:11Z</time>
      </trkpt>
      <trkpt lat="44.02118" lon="3.45536">
        <ele>1288.7335368625</ele>
        <time>2017-05-26T14:57:43Z</time>
      </trkpt>
      <trkpt lat="44.02135" lon="3.4555">
        <ele>1293.8198469498</ele>
        <time>2017-05-26T14:57:58Z</time>
      </trkpt>
      <trkpt lat="44.02138" lon="3.45551">
        <ele>1293.8198469498</ele>
        <time>2017-05-26T14:57:58Z</time>
      </trkpt>
      <trkpt lat="44.02172" lon="3.45548">
        <ele>1297.927544801</ele>
        <time>2017-05-26T14:58:25Z</time>
      </trkpt>
      <trkpt lat="44.02174" lon="3.45521">
        <ele>1302.2833772417</ele>
        <time>2017-05-26T14:59:33Z</time>
      </trkpt>
      <trkpt lat="44.02171" lon="3.45511">
        <ele>1302.2833772417</ele>
        <time>2017-05-26T14:59:52Z</time>
      </trkpt>
      <trkpt lat="44.02177" lon="3.45505">
        <ele>1306.0779192635</ele>
        <time>2017-05-26T15:00:09Z</time>
      </trkpt>
      <trkpt lat="44.0218" lon="3.45499">
        <ele>1306.0779192635</ele>
        <time>2017-05-26T15:00:12Z</time>
      </trkpt>
      <trkpt lat="44.02184" lon="3.45493">
        <ele>1309.2114042956</ele>
        <time>2017-05-26T15:00:17Z</time>
      </trkpt>
      <trkpt lat="44.02187" lon="3.45486">
        <ele>1309.2114042956</ele>
        <time>2017-05-26T15:00:27Z</time>
      </trkpt>
      <trkpt lat="44.02189" lon="3.45483">
        <ele>1309.2114042956</ele>
        <time>2017-05-26T15:00:27Z</time>
      </trkpt>
      <trkpt lat="44.02198" lon="3.45456">
        <ele>1311.9968640496</ele>
        <time>2017-05-26T15:01:01Z</time>
      </trkpt>
      <trkpt lat="44.02207" lon="3.45439">
        <ele>1314.3507040459</ele>
        <time>2017-05-26T15:01:34Z</time>
      </trkpt>
      <trkpt lat="44.02204" lon="3.45431">
        <ele>1314.3507040459</ele>
        <time>2017-05-26T15:01:34Z</time>
      </trkpt>
      <trkpt lat="44.02205" lon="3.45422">
        <ele>1316.6723058428</ele>
        <time>2017-05-26T15:01:44Z</time>
      </trkpt>
      <trkpt lat="44.02221" lon="3.45428">
        <ele>1319.2597805879</ele>
        <time>2017-05-26T15:03:10Z</time>
      </trkpt>
      <trkpt lat="44.02232" lon="3.45386">
        <ele>1321.6248142373</ele>
        <time>2017-05-26T15:03:43Z</time>
      </trkpt>
      <trkpt lat="44.02229" lon="3.45379">
        <ele>1321.6248142373</ele>
        <time>2017-05-26T15:03:43Z</time>
      </trkpt>
      <trkpt lat="44.02233" lon="3.45371">
        <ele>1323.9352521237</ele>
        <time>2017-05-26T15:04:08Z</time>
      </trkpt>
      <trkpt lat="44.02233" lon="3.45366">
        <ele>1323.9352521237</ele>
        <time>2017-05-26T15:04:08Z</time>
      </trkpt>
      <trkpt lat="44.0224" lon="3.45365">
        <ele>1326.202616659</ele>
        <time>2017-05-26T15:04:17Z</time>
      </trkpt>
      <trkpt lat="44.02252" lon="3.45333">
        <ele>1328.7835172098</ele>
        <time>2017-05-26T15:05:06Z</time>
      </trkpt>
      <trkpt lat="44.02249" lon="3.45347">
        <ele>1331.4165597105</ele>
        <time>2017-05-26T15:05:31Z</time>
      </trkpt>
      <trkpt lat="44.02249" lon="3.45354">
        <ele>1331.4165597105</ele>
        <time>2017-05-26T15:05:31Z</time>
      </trkpt>
      <trkpt lat="44.0225" lon="3.45355">
        <ele>1331.4165597105</ele>
        <time>2017-05-26T15:05:39Z</time>
      </trkpt>
      <trkpt lat="44.0225" lon="3.45361">
        <ele>1333.8304958773</ele>
        <time>2017-05-26T15:05:56Z</time>
      </trkpt>
      <trkpt lat="44.02251" lon="3.45384">
        <ele>1336.3941945893</ele>
        <time>2017-05-26T15:06:46Z</time>
      </trkpt>
      <trkpt lat="44.02251" lon="3.45383">
        <ele>1336.3941945893</ele>
        <time>2017-05-26T15:07:00Z</time>
      </trkpt>
      <trkpt lat="44.02251" lon="3.45392">
        <ele>1336.3941945893</ele>
        <time>2017-05-26T15:07:29Z</time>
      </trkpt>
      <trkpt lat="44.02252" lon="3.45402">
        <ele>1341.0773542682</ele>
        <time>2017-05-26T15:07:36Z</time>
      </trkpt>
      <trkpt lat="44.02253" lon="3.45414">
        <ele>1341.0773542682</ele>
        <time>2017-05-26T15:08:17Z</time>
      </trkpt>
      <trkpt lat="44.02263" lon="3.45434">
        <ele>1346.4564204566</ele>
        <time>2017-05-26T15:10:02Z</time>
      </trkpt>
      <trkpt lat="44.02262" lon="3.45447">
        <ele>1351.4985711628</ele>
        <time>2017-05-26T15:11:10Z</time>
      </trkpt>
      <trkpt lat="44.02261" lon="3.45435">
        <ele>1355.838550987</ele>
        <time>2017-05-26T15:18:58Z</time>
      </trkpt>
      <trkpt lat="44.02263" lon="3.45429">
        <ele>1355.838550987</ele>
        <time>2017-05-26T15:18:58Z</time>
      </trkpt>
      <trkpt lat="44.02261" lon="3.45417">
        <ele>1359.5433198526</ele>
        <time>2017-05-26T15:19:22Z</time>
      </trkpt>
      <trkpt lat="44.02272" lon="3.45417">
        <ele>1362.5036742567</ele>
        <time>2017-05-26T15:19:47Z</time>
      </trkpt>
      <trkpt lat="44.02274" lon="3.45411">
        <ele>1362.5036742567</ele>
        <time>2017-05-26T15:20:03Z</time>
      </trkpt>
      <trkpt lat="44.02272" lon="3.45404">
        <ele>1364.7789488248</ele>
        <time>2017-05-26T15:20:22Z</time>
      </trkpt>
      <trkpt lat="44.02262" lon="3.45399">
        <ele>1366.3827067264</ele>
        <time>2017-05-26T15:20:48Z</time>
      </trkpt>
      <trkpt lat="44.02256" lon="3.45397">
        <ele>1366.3827067264</ele>
        <time>2017-05-26T15:21:05Z</time>
      </trkpt>
      <trkpt lat="44.0225" lon="3.45386">
        <ele>1367.4733969743</ele>
        <time>2017-05-26T15:21:39Z</time>
      </trkpt>
      <trkpt lat="44.02245" lon="3.45392">
        <ele>1367.4733969743</ele>
        <time>2017-05-26T15:21:48Z</time>
      </trkpt>
      <trkpt lat="44.02241" lon="3.45393">
        <ele>1368.1847290157</ele>
        <time>2017-05-26T15:21:57Z</time>
      </trkpt>
      <trkpt lat="44.02239" lon="3.45372">
        <ele>1368.4973965776</ele>
        <time>2017-05-26T15:22:53Z</time>
      </trkpt>
      <trkpt lat="44.02251" lon="3.45358">
        <ele>1368.163884676</ele>
        <time>2017-05-26T15:24:13Z</time>
      </trkpt>
      <trkpt lat="44.02263" lon="3.45359">
        <ele>1367.172649585</ele>
        <time>2017-05-26T15:24:17Z</time>
      </trkpt>
      <trkpt lat="44.02272" lon="3.45366">
        <ele>1365.8172587126</ele>
        <time>2017-05-26T15:24:35Z</time>
      </trkpt>
      <trkpt lat="44.02281" lon="3.45368">
        <ele>1365.8172587126</ele>
        <time>2017-05-26T15:25:00Z</time>
      </trkpt>
      <trkpt lat="44.02305" lon="3.45379">
        <ele>1363.8516930454</ele>
        <time>2017-05-26T15:25:07Z</time>
      </trkpt>
      <trkpt lat="44.02309" lon="3.45383">
        <ele>1363.8516930454</ele>
        <time>2017-05-26T15:25:12Z</time>
      </trkpt>
      <trkpt lat="44.02324" lon="3.45406">
        <ele>1361.5106022482</ele>
        <time>2017-05-26T15:25:33Z</time>
      </trkpt>
      <trkpt lat="44.02348" lon="3.4543">
        <ele>1358.8392179975</ele>
        <time>2017-05-26T15:25:51Z</time>
      </trkpt>
      <trkpt lat="44.02348" lon="3.45431">
        <ele>1358.8392179975</ele>
        <time>2017-05-26T15:25:52Z</time>
      </trkpt>
      <trkpt lat="44.02358" lon="3.45446">
        <ele>1355.9953342694</ele>
        <time>2017-05-26T15:26:09Z</time>
      </trkpt>
      <trkpt lat="44.02358" lon="3.4546">
        <ele>1353.1396891694</ele>
        <time>2017-05-26T15:26:15Z</time>
      </trkpt>
      <trkpt lat="44.02359" lon="3.45477">
        <ele>1350.2479259805</ele>
        <time>2017-05-26T15:26:27Z</time>
      </trkpt>
      <trkpt lat="44.02353" lon="3.45534">
        <ele>1347.1530554675</ele>
        <time>2017-05-26T15:27:13Z</time>
      </trkpt>
      <trkpt lat="44.02326" lon="3.45566">
        <ele>1343.5707896525</ele>
        <time>2017-05-26T15:27:23Z</time>
      </trkpt>
      <trkpt lat="44.0223" lon="3.45665">
        <ele>1338.8495323954</ele>
        <time>2017-05-26T15:29:00Z</time>
      </trkpt>
      <trkpt lat="44.02241" lon="3.45687">
        <ele>1334.5355234662</ele>
        <time>2017-05-26T15:29:12Z</time>
      </trkpt>
      <trkpt lat="44.02261" lon="3.4581">
        <ele>1330.2151473431</ele>
        <time>2017-05-26T15:30:38Z</time>
      </trkpt>
      <trkpt lat="44.02265" lon="3.45815">
        <ele>1330.2151473431</ele>
        <time>2017-05-26T15:30:43Z</time>
      </trkpt>
      <trkpt lat="44.02276" lon="3.45825">
        <ele>1326.4269773113</ele>
        <time>2017-05-26T15:31:00Z</time>
      </trkpt>
      <trkpt lat="44.02285" lon="3.4583">
        <ele>1322.8897887248</ele>
        <time>2017-05-26T15:31:00Z</time>
      </trkpt>
      <trkpt lat="44.02293" lon="3.45837">
        <ele>1319.6588032112</ele>
        <time>2017-05-26T15:31:09Z</time>
      </trkpt>
      <trkpt lat="44.02376" lon="3.45856">
        <ele>1315.2273644313</ele>
        <time>2017-05-26T15:32:01Z</time>
      </trkpt>
      <trkpt lat="44.02377" lon="3.45856">
        <ele>1315.2273644313</ele>
        <time>2017-05-26T15:32:07Z</time>
      </trkpt>
      <trkpt lat="44.02381" lon="3.45863">
        <ele>1315.2273644313</ele>
        <time>2017-05-26T15:32:07Z</time>
      </trkpt>
      <trkpt lat="44.02381" lon="3.45958">
        <ele>1310.4936605692</ele>
        <time>2017-05-26T15:33:07Z</time>
      </trkpt>
      <trkpt lat="44.02383" lon="3.45968">
        <ele>1310.4936605692</ele>
        <time>2017-05-26T15:33:09Z</time>
      </trkpt>
      <trkpt lat="44.02458" lon="3.46142">
        <ele>1305.4543267506</ele>
        <time>2017-05-26T15:35:06Z</time>
      </trkpt>
      <trkpt lat="44.02464" lon="3.46153">
        <ele>1300.8703089401</ele>
        <time>2017-05-26T15:35:08Z</time>
      </trkpt>
      <trkpt lat="44.02485" lon="3.46187">
        <ele>1296.7530544669</ele>
        <time>2017-05-26T15:35:42Z</time>
      </trkpt>
      <trkpt lat="44.0253" lon="3.46226">
        <ele>1293.457136079</ele>
        <time>2017-05-26T15:36:32Z</time>
      </trkpt>
      <trkpt lat="44.02609" lon="3.46263">
        <ele>1291.3370114781</ele>
        <time>2017-05-26T15:37:30Z</time>
      </trkpt>
      <trkpt lat="44.02653" lon="3.4627">
        <ele>1290.08313837</ele>
        <time>2017-05-26T15:38:08Z</time>
      </trkpt>
      <trkpt lat="44.02666" lon="3.46271">
        <ele>1289.1607395709</ele>
        <time>2017-05-26T15:38:08Z</time>
      </trkpt>
      <trkpt lat="44.02686" lon="3.46283">
        <ele>1288.7645977587</ele>
        <time>2017-05-26T15:38:27Z</time>
      </trkpt>
      <trkpt lat="44.0271" lon="3.46288">
        <ele>1288.6985245937</ele>
        <time>2017-05-26T15:38:53Z</time>
      </trkpt>
      <trkpt lat="44.02719" lon="3.46286">
        <ele>1288.6985245937</ele>
        <time>2017-05-26T15:38:53Z</time>
      </trkpt>
      <trkpt lat="44.02729" lon="3.46289">
        <ele>1288.2893757584</ele>
        <time>2017-05-26T15:39:09Z</time>
      </trkpt>
      <trkpt lat="44.0274" lon="3.46293">
        <ele>1287.994821848</ele>
        <time>2017-05-26T15:39:09Z</time>
      </trkpt>
      <trkpt lat="44.0275" lon="3.46292">
        <ele>1287.6617504284</ele>
        <time>2017-05-26T15:39:17Z</time>
      </trkpt>
      <trkpt lat="44.02763" lon="3.46285">
        <ele>1287.4650847692</ele>
        <time>2017-05-26T15:39:26Z</time>
      </trkpt>
      <trkpt lat="44.02796" lon="3.46309">
        <ele>1286.4421134474</ele>
        <time>2017-05-26T15:40:03Z</time>
      </trkpt>
      <trkpt lat="44.02794" lon="3.46314">
        <ele>1286.4421134474</ele>
        <time>2017-05-26T15:40:03Z</time>
      </trkpt>
      <trkpt lat="44.02754" lon="3.46362">
        <ele>1285.0574997687</ele>
        <time>2017-05-26T15:41:06Z</time>
      </trkpt>
      <trkpt lat="44.02754" lon="3.46362">
        <ele>1285.0574997687</ele>
        <time>2017-05-26T15:41:07Z</time>
      </trkpt>
      <trkpt lat="44.02752" lon="3.46363">
        <ele>1285.0574997687</ele>
        <time>2017-05-26T15:41:13Z</time>
      </trkpt>
      <trkpt lat="44.02735" lon="3.46381">
        <ele>1283.771325206</ele>
        <time>2017-05-26T15:41:28Z</time>
      </trkpt>
      <trkpt lat="44.02721" lon="3.46395">
        <ele>1282.7787564941</ele>
        <time>2017-05-26T15:41:44Z</time>
      </trkpt>
      <trkpt lat="44.02714" lon="3.46408">
        <ele>1282.0145670979</ele>
        <time>2017-05-26T15:41:44Z</time>
      </trkpt>
      <trkpt lat="44.027" lon="3.46447">
        <ele>1281.4462795489</ele>
        <time>2017-05-26T15:42:05Z</time>
      </trkpt>
      <trkpt lat="44.02676" lon="3.46476">
        <ele>1281.2159830035</ele>
        <time>2017-05-26T15:42:22Z</time>
      </trkpt>
      <trkpt lat="44.02673" lon="3.46529">
        <ele>1280.7624654255</ele>
        <time>2017-05-26T15:42:53Z</time>
      </trkpt>
      <trkpt lat="44.02692" lon="3.46564">
        <ele>1280.2291182339</ele>
        <time>2017-05-26T15:43:16Z</time>
      </trkpt>
      <trkpt lat="44.02728" lon="3.46611">
        <ele>1278.9562706898</ele>
        <time>2017-05-26T15:44:05Z</time>
      </trkpt>
      <trkpt lat="44.02754" lon="3.46632">
        <ele>1278.0351737359</ele>
        <time>2017-05-26T15:44:37Z</time>
      </trkpt>
      <trkpt lat="44.02797" lon="3.46641">
        <ele>1277.1067643126</ele>
        <time>2017-05-26T15:45:05Z</time>
      </trkpt>
      <trkpt lat="44.02799" lon="3.46642">
        <ele>1277.1067643126</ele>
        <time>2017-05-26T15:45:07Z</time>
      </trkpt>
      <trkpt lat="44.02821" lon="3.4663">
        <ele>1276.3282595847</ele>
        <time>2017-05-26T15:45:42Z</time>
      </trkpt>
      <trkpt lat="44.02851" lon="3.46605">
        <ele>1275.7439476285</ele>
        <time>2017-05-26T15:46:14Z</time>
      </trkpt>
      <trkpt lat="44.02912" lon="3.4658">
        <ele>1275.9130516483</ele>
        <time>2017-05-26T15:46:59Z</time>
      </trkpt>
      <trkpt lat="44.02921" lon="3.46583">
        <ele>1276.213071687</ele>
        <time>2017-05-26T15:47:00Z</time>
      </trkpt>
      <trkpt lat="44.02979" lon="3.46617">
        <ele>1275.158932137</ele>
        <time>2017-05-26T15:47:49Z</time>
      </trkpt>
      <trkpt lat="44.02991" lon="3.46626">
        <ele>1273.9724271019</ele>
        <time>2017-05-26T15:47:49Z</time>
      </trkpt>
      <trkpt lat="44.03048" lon="3.46707">
        <ele>1272.5177791076</ele>
        <time>2017-05-26T15:49:07Z</time>
      </trkpt>
      <trkpt lat="44.03105" lon="3.46742">
        <ele>1271.2319651217</ele>
        <time>2017-05-26T15:49:43Z</time>
      </trkpt>
      <trkpt lat="44.03107" lon="3.46853">
        <ele>1270.2167539325</ele>
        <time>2017-05-26T15:51:08Z</time>
      </trkpt>
      <trkpt lat="44.03107" lon="3.46872">
        <ele>1269.4359827531</ele>
        <time>2017-05-26T15:51:08Z</time>
      </trkpt>
      <trkpt lat="44.03091" lon="3.46945">
        <ele>1269.0572524136</ele>
        <time>2017-05-26T15:51:55Z</time>
      </trkpt>
      <trkpt lat="44.0309" lon="3.46948">
        <ele>1269.0572524136</ele>
        <time>2017-05-26T15:51:57Z</time>
      </trkpt>
      <trkpt lat="44.0309" lon="3.46954">
        <ele>1269.0572524136</ele>
        <time>2017-05-26T15:52:02Z</time>
      </trkpt>
      <trkpt lat="44.03086" lon="3.46962">
        <ele>1268.8744626449</ele>
        <time>2017-05-26T15:52:12Z</time>
      </trkpt>
      <trkpt lat="44.03083" lon="3.46966">
        <ele>1268.8744626449</ele>
        <time>2017-05-26T15:52:17Z</time>
      </trkpt>
      <trkpt lat="44.03073" lon="3.46973">
        <ele>1268.8258289863</ele>
        <time>2017-05-26T15:52:27Z</time>
      </trkpt>
      <trkpt lat="44.03071" lon="3.4698">
        <ele>1268.8258289863</ele>
        <time>2017-05-26T15:52:32Z</time>
      </trkpt>
      <trkpt lat="44.03059" lon="3.46999">
        <ele>1268.9114092573</ele>
        <time>2017-05-26T15:52:42Z</time>
      </trkpt>
      <trkpt lat="44.03054" lon="3.47011">
        <ele>1269.2462160001</ele>
        <time>2017-05-26T15:52:47Z</time>
      </trkpt>
      <trkpt lat="44.03043" lon="3.47035">
        <ele>1269.8352942189</ele>
        <time>2017-05-26T15:53:04Z</time>
      </trkpt>
      <trkpt lat="44.03041" lon="3.4704">
        <ele>1269.8352942189</ele>
        <time>2017-05-26T15:53:07Z</time>
      </trkpt>
      <trkpt lat="44.03033" lon="3.47072">
        <ele>1270.3944526889</ele>
        <time>2017-05-26T15:53:26Z</time>
      </trkpt>
      <trkpt lat="44.03032" lon="3.47076">
        <ele>1270.3944526889</ele>
        <time>2017-05-26T15:53:27Z</time>
      </trkpt>
      <trkpt lat="44.03027" lon="3.47118">
        <ele>1270.5884863105</ele>
        <time>2017-05-26T15:53:52Z</time>
      </trkpt>
      <trkpt lat="44.03027" lon="3.4712">
        <ele>1270.5884863105</ele>
        <time>2017-05-26T15:53:57Z</time>
      </trkpt>
      <trkpt lat="44.03025" lon="3.47123">
        <ele>1270.5884863105</ele>
        <time>2017-05-26T15:54:02Z</time>
      </trkpt>
      <trkpt lat="44.03027" lon="3.47131">
        <ele>1270.7131967016</ele>
        <time>2017-05-26T15:54:07Z</time>
      </trkpt>
      <trkpt lat="44.03028" lon="3.47138">
        <ele>1270.7131967016</ele>
        <time>2017-05-26T15:54:12Z</time>
      </trkpt>
      <trkpt lat="44.03046" lon="3.4716">
        <ele>1270.1350492239</ele>
        <time>2017-05-26T15:54:39Z</time>
      </trkpt>
      <trkpt lat="44.03055" lon="3.47169">
        <ele>1269.4796574866</ele>
        <time>2017-05-26T15:54:39Z</time>
      </trkpt>
      <trkpt lat="44.03082" lon="3.47189">
        <ele>1268.3902766514</ele>
        <time>2017-05-26T15:55:02Z</time>
      </trkpt>
      <trkpt lat="44.03098" lon="3.47221">
        <ele>1267.344711249</ele>
        <time>2017-05-26T15:55:38Z</time>
      </trkpt>
      <trkpt lat="44.0311" lon="3.47255">
        <ele>1266.2236093929</ele>
        <time>2017-05-26T15:55:53Z</time>
      </trkpt>
      <trkpt lat="44.03126" lon="3.4732">
        <ele>1264.8734593514</ele>
        <time>2017-05-26T15:56:39Z</time>
      </trkpt>
      <trkpt lat="44.03121" lon="3.47328">
        <ele>1264.8734593514</ele>
        <time>2017-05-26T15:56:39Z</time>
      </trkpt>
      <trkpt lat="44.03095" lon="3.47356">
        <ele>1263.5562681715</ele>
        <time>2017-05-26T15:57:04Z</time>
      </trkpt>
      <trkpt lat="44.03086" lon="3.47389">
        <ele>1262.4139078018</ele>
        <time>2017-05-26T15:57:22Z</time>
      </trkpt>
      <trkpt lat="44.03067" lon="3.47445">
        <ele>1261.2891915979</ele>
        <time>2017-05-26T15:57:55Z</time>
      </trkpt>
      <trkpt lat="44.03066" lon="3.47446">
        <ele>1261.2891915979</ele>
        <time>2017-05-26T15:57:57Z</time>
      </trkpt>
      <trkpt lat="44.03072" lon="3.47469">
        <ele>1260.1662006628</ele>
        <time>2017-05-26T15:58:13Z</time>
      </trkpt>
      <trkpt lat="44.03069" lon="3.475">
        <ele>1259.2464130955</ele>
        <time>2017-05-26T15:58:27Z</time>
      </trkpt>
      <trkpt lat="44.03071" lon="3.47526">
        <ele>1258.5718874831</ele>
        <time>2017-05-26T15:58:42Z</time>
      </trkpt>
      <trkpt lat="44.03061" lon="3.47561">
        <ele>1258.2386093297</ele>
        <time>2017-05-26T15:59:06Z</time>
      </trkpt>
      <trkpt lat="44.03043" lon="3.476">
        <ele>1258.0608042015</ele>
        <time>2017-05-26T15:59:28Z</time>
      </trkpt>
      <trkpt lat="44.03018" lon="3.47652">
        <ele>1258.1397807435</ele>
        <time>2017-05-26T16:00:06Z</time>
      </trkpt>
      <trkpt lat="44.0302" lon="3.47663">
        <ele>1258.1397807435</ele>
        <time>2017-05-26T16:00:08Z</time>
      </trkpt>
      <trkpt lat="44.03028" lon="3.47672">
        <ele>1258.4390495315</ele>
        <time>2017-05-26T16:00:17Z</time>
      </trkpt>
      <trkpt lat="44.03039" lon="3.47728">
        <ele>1259.6015764601</ele>
        <time>2017-05-26T16:00:58Z</time>
      </trkpt>
      <trkpt lat="44.03044" lon="3.47739">
        <ele>1260.8949292546</ele>
        <time>2017-05-26T16:00:58Z</time>
      </trkpt>
      <trkpt lat="44.03047" lon="3.47755">
        <ele>1262.2887009865</ele>
        <time>2017-05-26T16:01:13Z</time>
      </trkpt>
      <trkpt lat="44.03052" lon="3.47789">
        <ele>1264.042759022</ele>
        <time>2017-05-26T16:01:32Z</time>
      </trkpt>
      <trkpt lat="44.03066" lon="3.4788">
        <ele>1266.1087613586</ele>
        <time>2017-05-26T16:02:17Z</time>
      </trkpt>
      <trkpt lat="44.0309" lon="3.47993">
        <ele>1269.1184931344</ele>
        <time>2017-05-26T16:03:26Z</time>
      </trkpt>
      <trkpt lat="44.03109" lon="3.48074">
        <ele>1272.4875266534</ele>
        <time>2017-05-26T16:04:19Z</time>
      </trkpt>
      <trkpt lat="44.03122" lon="3.48144">
        <ele>1276.3076123576</ele>
        <time>2017-05-26T16:05:02Z</time>
      </trkpt>
      <trkpt lat="44.03147" lon="3.48184">
        <ele>1280.0430037679</ele>
        <time>2017-05-26T16:05:33Z</time>
      </trkpt>
      <trkpt lat="44.03147" lon="3.48196">
        <ele>1280.0430037679</ele>
        <time>2017-05-26T16:05:33Z</time>
      </trkpt>
      <trkpt lat="44.03194" lon="3.48284">
        <ele>1284.5379909141</ele>
        <time>2017-05-26T16:06:40Z</time>
      </trkpt>
      <trkpt lat="44.03195" lon="3.4829">
        <ele>1284.5379909141</ele>
        <time>2017-05-26T16:06:40Z</time>
      </trkpt>
      <trkpt lat="44.03194" lon="3.48377">
        <ele>1288.7283207928</ele>
        <time>2017-05-26T16:07:33Z</time>
      </trkpt>
      <trkpt lat="44.03196" lon="3.48397">
        <ele>1292.5225164162</ele>
        <time>2017-05-26T16:07:42Z</time>
      </trkpt>
      <trkpt lat="44.03203" lon="3.48411">
        <ele>1296.1254254206</ele>
        <time>2017-05-26T16:07:49Z</time>
      </trkpt>
      <trkpt lat="44.03205" lon="3.48418">
        <ele>1296.1254254206</ele>
        <time>2017-05-26T16:07:52Z</time>
      </trkpt>
      <trkpt lat="44.03211" lon="3.48424">
        <ele>1299.4682702585</ele>
        <time>2017-05-26T16:07:57Z</time>
      </trkpt>
      <trkpt lat="44.03215" lon="3.48428">
        <ele>1299.4682702585</ele>
        <time>2017-05-26T16:08:02Z</time>
      </trkpt>
      <trkpt lat="44.03221" lon="3.4843">
        <ele>1302.5892301672</ele>
        <time>2017-05-26T16:08:07Z</time>
      </trkpt>
      <trkpt lat="44.03224" lon="3.48435">
        <ele>1302.5892301672</ele>
        <time>2017-05-26T16:08:12Z</time>
      </trkpt>
      <trkpt lat="44.03226" lon="3.4844">
        <ele>1302.5892301672</ele>
        <time>2017-05-26T16:08:17Z</time>
      </trkpt>
      <trkpt lat="44.03227" lon="3.48441">
        <ele>1305.3372613938</ele>
        <time>2017-05-26T16:08:22Z</time>
      </trkpt>
      <trkpt lat="44.03223" lon="3.48461">
        <ele>1307.7611130807</ele>
        <time>2017-05-26T16:08:27Z</time>
      </trkpt>
      <trkpt lat="44.03228" lon="3.48467">
        <ele>1307.7611130807</ele>
        <time>2017-05-26T16:08:32Z</time>
      </trkpt>
      <trkpt lat="44.03229" lon="3.48474">
        <ele>1309.8351129051</ele>
        <time>2017-05-26T16:08:37Z</time>
      </trkpt>
      <trkpt lat="44.03229" lon="3.48481">
        <ele>1309.8351129051</ele>
        <time>2017-05-26T16:08:42Z</time>
      </trkpt>
      <trkpt lat="44.03229" lon="3.48488">
        <ele>1311.5944016792</ele>
        <time>2017-05-26T16:08:47Z</time>
      </trkpt>
      <trkpt lat="44.03228" lon="3.485">
        <ele>1311.5944016792</ele>
        <time>2017-05-26T16:08:54Z</time>
      </trkpt>
      <trkpt lat="44.03228" lon="3.48529">
        <ele>1312.8277258125</ele>
        <time>2017-05-26T16:09:29Z</time>
      </trkpt>
      <trkpt lat="44.03194" lon="3.48547">
        <ele>1313.7446186665</ele>
        <time>2017-05-26T16:09:54Z</time>
      </trkpt>
      <trkpt lat="44.03191" lon="3.48547">
        <ele>1313.7446186665</ele>
        <time>2017-05-26T16:10:00Z</time>
      </trkpt>
      <trkpt lat="44.03138" lon="3.48547">
        <ele>1314.7421324013</ele>
        <time>2017-05-26T16:10:39Z</time>
      </trkpt>
      <trkpt lat="44.03141" lon="3.48556">
        <ele>1314.7421324013</ele>
        <time>2017-05-26T16:10:58Z</time>
      </trkpt>
      <trkpt lat="44.03127" lon="3.4856">
        <ele>1315.7414331401</ele>
        <time>2017-05-26T16:11:16Z</time>
      </trkpt>
      <trkpt lat="44.03068" lon="3.48543">
        <ele>1316.6552973235</ele>
        <time>2017-05-26T16:11:52Z</time>
      </trkpt>
      <trkpt lat="44.03056" lon="3.4854">
        <ele>1317.4610116611</ele>
        <time>2017-05-26T16:11:57Z</time>
      </trkpt>
      <trkpt lat="44.03045" lon="3.48535">
        <ele>1318.166859333</ele>
        <time>2017-05-26T16:12:14Z</time>
      </trkpt>
      <trkpt lat="44.03035" lon="3.48532">
        <ele>1318.7089253865</ele>
        <time>2017-05-26T16:12:14Z</time>
      </trkpt>
      <trkpt lat="44.0298" lon="3.48531">
        <ele>1319.6050639103</ele>
        <time>2017-05-26T16:13:00Z</time>
      </trkpt>
      <trkpt lat="44.02977" lon="3.48532">
        <ele>1319.6050639103</ele>
        <time>2017-05-26T16:13:02Z</time>
      </trkpt>
      <trkpt lat="44.02936" lon="3.48524">
        <ele>1320.6281042195</ele>
        <time>2017-05-26T16:13:36Z</time>
      </trkpt>
      <trkpt lat="44.0292" lon="3.4852">
        <ele>1321.7546924774</ele>
        <time>2017-05-26T16:13:58Z</time>
      </trkpt>
      <trkpt lat="44.02909" lon="3.48523">
        <ele>1322.8045055619</ele>
        <time>2017-05-26T16:13:58Z</time>
      </trkpt>
      <trkpt lat="44.02901" lon="3.48521">
        <ele>1322.8045055619</ele>
        <time>2017-05-26T16:14:15Z</time>
      </trkpt>
      <trkpt lat="44.02864" lon="3.48511">
        <ele>1324.5042892747</ele>
        <time>2017-05-26T16:14:47Z</time>
      </trkpt>
      <trkpt lat="44.02859" lon="3.48508">
        <ele>1324.5042892747</ele>
        <time>2017-05-26T16:14:47Z</time>
      </trkpt>
      <trkpt lat="44.02846" lon="3.48492">
        <ele>1326.2286886329</ele>
        <time>2017-05-26T16:15:00Z</time>
      </trkpt>
      <trkpt lat="44.02846" lon="3.48491">
        <ele>1326.2286886329</ele>
        <time>2017-05-26T16:15:06Z</time>
      </trkpt>
      <trkpt lat="44.0282" lon="3.48475">
        <ele>1328.0035873696</ele>
        <time>2017-05-26T16:15:31Z</time>
      </trkpt>
      <trkpt lat="44.02803" lon="3.48464">
        <ele>1329.8961571475</ele>
        <time>2017-05-26T16:15:48Z</time>
      </trkpt>
      <trkpt lat="44.02786" lon="3.4845">
        <ele>1331.795465664</ele>
        <time>2017-05-26T16:15:56Z</time>
      </trkpt>
      <trkpt lat="44.02733" lon="3.48379">
        <ele>1334.1896579687</ele>
        <time>2017-05-26T16:16:57Z</time>
      </trkpt>
      <trkpt lat="44.02727" lon="3.48373">
        <ele>1334.1896579687</ele>
        <time>2017-05-26T16:17:02Z</time>
      </trkpt>
      <trkpt lat="44.02722" lon="3.48366">
        <ele>1336.5641769867</ele>
        <time>2017-05-26T16:17:12Z</time>
      </trkpt>
      <trkpt lat="44.02721" lon="3.4836">
        <ele>1336.5641769867</ele>
        <time>2017-05-26T16:17:17Z</time>
      </trkpt>
      <trkpt lat="44.02719" lon="3.48347">
        <ele>1338.6873976731</ele>
        <time>2017-05-26T16:17:27Z</time>
      </trkpt>
      <trkpt lat="44.02719" lon="3.48321">
        <ele>1340.1293352421</ele>
        <time>2017-05-26T16:17:52Z</time>
      </trkpt>
      <trkpt lat="44.02714" lon="3.48316">
        <ele>1340.1293352421</ele>
        <time>2017-05-26T16:17:57Z</time>
      </trkpt>
      <trkpt lat="44.02711" lon="3.4831">
        <ele>1341.2717866015</ele>
        <time>2017-05-26T16:18:02Z</time>
      </trkpt>
      <trkpt lat="44.02708" lon="3.48304">
        <ele>1341.2717866015</ele>
        <time>2017-05-26T16:18:07Z</time>
      </trkpt>
      <trkpt lat="44.02704" lon="3.48298">
        <ele>1342.0514974043</ele>
        <time>2017-05-26T16:18:12Z</time>
      </trkpt>
      <trkpt lat="44.02702" lon="3.48293">
        <ele>1342.0514974043</ele>
        <time>2017-05-26T16:18:20Z</time>
      </trkpt>
      <trkpt lat="44.02602" lon="3.48187">
        <ele>1342.4830012897</ele>
        <time>2017-05-26T16:20:16Z</time>
      </trkpt>
      <trkpt lat="44.0259" lon="3.4817">
        <ele>1342.840197636</ele>
        <time>2017-05-26T16:20:16Z</time>
      </trkpt>
      <trkpt lat="44.0258" lon="3.48156">
        <ele>1343.1465393278</ele>
        <time>2017-05-26T16:20:33Z</time>
      </trkpt>
      <trkpt lat="44.02574" lon="3.48153">
        <ele>1343.1465393278</ele>
        <time>2017-05-26T16:20:33Z</time>
      </trkpt>
      <trkpt lat="44.02539" lon="3.48133">
        <ele>1343.6689182541</ele>
        <time>2017-05-26T16:20:56Z</time>
      </trkpt>
      <trkpt lat="44.02537" lon="3.48132">
        <ele>1343.6689182541</ele>
        <time>2017-05-26T16:20:57Z</time>
      </trkpt>
      <trkpt lat="44.02519" lon="3.48123">
        <ele>1344.1784651237</ele>
        <time>2017-05-26T16:21:23Z</time>
      </trkpt>
      <trkpt lat="44.02511" lon="3.4812">
        <ele>1344.1784651237</ele>
        <time>2017-05-26T16:21:23Z</time>
      </trkpt>
      <trkpt lat="44.02504" lon="3.48111">
        <ele>1344.7225652366</ele>
        <time>2017-05-26T16:21:40Z</time>
      </trkpt>
      <trkpt lat="44.025" lon="3.48102">
        <ele>1344.7225652366</ele>
        <time>2017-05-26T16:21:40Z</time>
      </trkpt>
      <trkpt lat="44.02481" lon="3.48086">
        <ele>1345.2441437932</ele>
        <time>2017-05-26T16:21:57Z</time>
      </trkpt>
      <trkpt lat="44.02458" lon="3.48062">
        <ele>1345.7191903195</ele>
        <time>2017-05-26T16:22:22Z</time>
      </trkpt>
      <trkpt lat="44.02451" lon="3.48062">
        <ele>1345.7191903195</ele>
        <time>2017-05-26T16:22:27Z</time>
      </trkpt>
      <trkpt lat="44.02446" lon="3.48057">
        <ele>1346.1255661653</ele>
        <time>2017-05-26T16:22:44Z</time>
      </trkpt>
      <trkpt lat="44.02443" lon="3.48043">
        <ele>1345.92411966</ele>
        <time>2017-05-26T16:23:17Z</time>
      </trkpt>
      <trkpt lat="44.02441" lon="3.48043">
        <ele>1345.92411966</ele>
        <time>2017-05-26T16:23:27Z</time>
      </trkpt>
      <trkpt lat="44.02446" lon="3.48043">
        <ele>1345.92411966</ele>
        <time>2017-05-26T16:23:48Z</time>
      </trkpt>
      <trkpt lat="44.02444" lon="3.48045">
        <ele>1345.0925344919</ele>
        <time>2017-05-26T16:24:03Z</time>
      </trkpt>
      <trkpt lat="44.0244" lon="3.48043">
        <ele>1345.0925344919</ele>
        <time>2017-05-26T16:24:07Z</time>
      </trkpt>
      <trkpt lat="44.02432" lon="3.48041">
        <ele>1343.9288910507</ele>
        <time>2017-05-26T16:24:12Z</time>
      </trkpt>
      <trkpt lat="44.02426" lon="3.48039">
        <ele>1343.9288910507</ele>
        <time>2017-05-26T16:24:17Z</time>
      </trkpt>
      <trkpt lat="44.02421" lon="3.48037">
        <ele>1342.6381792204</ele>
        <time>2017-05-26T16:24:22Z</time>
      </trkpt>
      <trkpt lat="44.02414" lon="3.48033">
        <ele>1342.6381792204</ele>
        <time>2017-05-26T16:24:27Z</time>
      </trkpt>
      <trkpt lat="44.02409" lon="3.48031">
        <ele>1341.3673676596</ele>
        <time>2017-05-26T16:24:34Z</time>
      </trkpt>
      <trkpt lat="44.02374" lon="3.48031">
        <ele>1341.1027281762</ele>
        <time>2017-05-26T16:25:07Z</time>
      </trkpt>
      <trkpt lat="44.02327" lon="3.48038">
        <ele>1342.4525150484</ele>
        <time>2017-05-26T16:25:48Z</time>
      </trkpt>
      <trkpt lat="44.02311" lon="3.48046">
        <ele>1344.1166229258</ele>
        <time>2017-05-26T16:26:08Z</time>
      </trkpt>
      <trkpt lat="44.02298" lon="3.48057">
        <ele>1345.9558802937</ele>
        <time>2017-05-26T16:26:09Z</time>
      </trkpt>
      <trkpt lat="44.02289" lon="3.4806">
        <ele>1347.8551551943</ele>
        <time>2017-05-26T16:26:25Z</time>
      </trkpt>
      <trkpt lat="44.02275" lon="3.48064">
        <ele>1349.9236794774</ele>
        <time>2017-05-26T16:26:25Z</time>
      </trkpt>
      <trkpt lat="44.02238" lon="3.48086">
        <ele>1353.3285310387</ele>
        <time>2017-05-26T16:27:09Z</time>
      </trkpt>
      <trkpt lat="44.02227" lon="3.4809">
        <ele>1356.8270548742</ele>
        <time>2017-05-26T16:27:09Z</time>
      </trkpt>
      <trkpt lat="44.02213" lon="3.48098">
        <ele>1360.5357535244</ele>
        <time>2017-05-26T16:27:22Z</time>
      </trkpt>
      <trkpt lat="44.022" lon="3.48108">
        <ele>1364.2160931078</ele>
        <time>2017-05-26T16:27:37Z</time>
      </trkpt>
      <trkpt lat="44.02196" lon="3.4811">
        <ele>1364.2160931078</ele>
        <time>2017-05-26T16:27:37Z</time>
      </trkpt>
      <trkpt lat="44.02161" lon="3.48118">
        <ele>1368.2379981298</ele>
        <time>2017-05-26T16:28:10Z</time>
      </trkpt>
      <trkpt lat="44.02158" lon="3.48122">
        <ele>1368.2379981298</ele>
        <time>2017-05-26T16:28:10Z</time>
      </trkpt>
      <trkpt lat="44.02087" lon="3.48142">
        <ele>1373.3179733774</ele>
        <time>2017-05-26T16:29:06Z</time>
      </trkpt>
      <trkpt lat="44.02087" lon="3.48142">
        <ele>1373.3179733774</ele>
        <time>2017-05-26T16:29:07Z</time>
      </trkpt>
      <trkpt lat="44.02073" lon="3.48145">
        <ele>1377.8976563432</ele>
        <time>2017-05-26T16:29:21Z</time>
      </trkpt>
      <trkpt lat="44.02003" lon="3.48145">
        <ele>1382.7827692623</ele>
        <time>2017-05-26T16:30:20Z</time>
      </trkpt>
      <trkpt lat="44.0199" lon="3.48143">
        <ele>1386.8744597596</ele>
        <time>2017-05-26T16:30:20Z</time>
      </trkpt>
      <trkpt lat="44.01881" lon="3.48114">
        <ele>1381.9513616776</ele>
        <time>2017-05-26T16:32:00Z</time>
      </trkpt>
      <trkpt lat="44.01863" lon="3.4809">
        <ele>1376.2880608155</ele>
        <time>2017-05-26T16:32:13Z</time>
      </trkpt>
      <trkpt lat="44.01826" lon="3.48069">
        <ele>1367.7394532752</ele>
        <time>2017-05-26T16:32:52Z</time>
      </trkpt>
      <trkpt lat="44.01826" lon="3.48069">
        <ele>1367.7394532752</ele>
        <time>2017-05-26T16:32:52Z</time>
      </trkpt>
      <trkpt lat="44.01826" lon="3.48079">
        <ele>1367.7394532752</ele>
        <time>2017-05-26T16:33:07Z</time>
      </trkpt>
      <trkpt lat="44.01824" lon="3.48081">
        <ele>1357.9144656294</ele>
        <time>2017-05-26T16:33:12Z</time>
      </trkpt>
      <trkpt lat="44.01825" lon="3.48081">
        <ele>1357.9144656294</ele>
        <time>2017-05-26T16:33:17Z</time>
      </trkpt>
      <trkpt lat="44.01821" lon="3.48084">
        <ele>1357.9144656294</ele>
        <time>2017-05-26T16:33:22Z</time>
      </trkpt>
      <trkpt lat="44.01784" lon="3.48139">
        <ele>1344.4019084728</ele>
        <time>2017-05-26T16:34:47Z</time>
      </trkpt>
      <trkpt lat="44.01796" lon="3.48178">
        <ele>1330.3388118331</ele>
        <time>2017-05-26T16:35:34Z</time>
      </trkpt>
      <trkpt lat="44.01797" lon="3.4818">
        <ele>1330.3388118331</ele>
        <time>2017-05-26T16:35:42Z</time>
      </trkpt>
      <trkpt lat="44.01812" lon="3.48291">
        <ele>1314.7708394065</ele>
        <time>2017-05-26T16:37:10Z</time>
      </trkpt>
      <trkpt lat="44.01808" lon="3.48298">
        <ele>1314.7708394065</ele>
        <time>2017-05-26T16:37:28Z</time>
      </trkpt>
      <trkpt lat="44.01806" lon="3.48301">
        <ele>1299.9736247929</ele>
        <time>2017-05-26T16:37:32Z</time>
      </trkpt>
      <trkpt lat="44.018" lon="3.48314">
        <ele>1286.0210122782</ele>
        <time>2017-05-26T16:37:48Z</time>
      </trkpt>
      <trkpt lat="44.018" lon="3.48315">
        <ele>1286.0210122782</ele>
        <time>2017-05-26T16:37:48Z</time>
      </trkpt>
      <trkpt lat="44.01794" lon="3.48353">
        <ele>1272.4308439823</ele>
        <time>2017-05-26T16:38:26Z</time>
      </trkpt>
      <trkpt lat="44.01794" lon="3.48361">
        <ele>1272.4308439823</ele>
        <time>2017-05-26T16:38:27Z</time>
      </trkpt>
      <trkpt lat="44.01743" lon="3.48438">
        <ele>1258.7979294639</ele>
        <time>2017-05-26T16:39:32Z</time>
      </trkpt>
      <trkpt lat="44.01694" lon="3.48505">
        <ele>1245.0920910958</ele>
        <time>2017-05-26T16:40:34Z</time>
      </trkpt>
      <trkpt lat="44.01693" lon="3.48505">
        <ele>1245.0920910958</ele>
        <time>2017-05-26T16:40:34Z</time>
      </trkpt>
      <trkpt lat="44.01672" lon="3.4852">
        <ele>1232.3800188411</ele>
        <time>2017-05-26T16:40:55Z</time>
      </trkpt>
      <trkpt lat="44.01668" lon="3.48523">
        <ele>1232.3800188411</ele>
        <time>2017-05-26T16:41:03Z</time>
      </trkpt>
      <trkpt lat="44.01645" lon="3.48522">
        <ele>1220.2917627146</ele>
        <time>2017-05-26T16:41:32Z</time>
      </trkpt>
      <trkpt lat="44.01637" lon="3.48524">
        <ele>1220.2917627146</ele>
        <time>2017-05-26T16:41:37Z</time>
      </trkpt>
      <trkpt lat="44.01604" lon="3.48523">
        <ele>1208.4963209043</ele>
        <time>2017-05-26T16:42:22Z</time>
      </trkpt>
      <trkpt lat="44.01589" lon="3.48521">
        <ele>1197.8381562443</ele>
        <time>2017-05-26T16:42:22Z</time>
      </trkpt>
      <trkpt lat="44.01576" lon="3.4852">
        <ele>1188.1444374886</ele>
        <time>2017-05-26T16:42:50Z</time>
      </trkpt>
      <trkpt lat="44.01575" lon="3.48519">
        <ele>1188.1444374886</ele>
        <time>2017-05-26T16:42:50Z</time>
      </trkpt>
      <trkpt lat="44.01531" lon="3.48525">
        <ele>1178.0552557756</ele>
        <time>2017-05-26T16:43:44Z</time>
      </trkpt>
      <trkpt lat="44.01531" lon="3.48526">
        <ele>1178.0552557756</ele>
        <time>2017-05-26T16:43:54Z</time>
      </trkpt>
      <trkpt lat="44.01487" lon="3.48539">
        <ele>1168.414786554</ele>
        <time>2017-05-26T16:44:25Z</time>
      </trkpt>
      <trkpt lat="44.01425" lon="3.48581">
        <ele>1159.325671548</ele>
        <time>2017-05-26T16:45:33Z</time>
      </trkpt>
      <trkpt lat="44.01413" lon="3.48584">
        <ele>1151.2408165153</ele>
        <time>2017-05-26T16:45:33Z</time>
      </trkpt>
      <trkpt lat="44.01347" lon="3.4864">
        <ele>1143.235896242</ele>
        <time>2017-05-26T16:47:00Z</time>
      </trkpt>
      <trkpt lat="44.01332" lon="3.48657">
        <ele>1135.880076437</ele>
        <time>2017-05-26T16:47:17Z</time>
      </trkpt>
      <trkpt lat="44.01311" lon="3.48672">
        <ele>1129.337757597</ele>
        <time>2017-05-26T16:47:43Z</time>
      </trkpt>
      <trkpt lat="44.01302" lon="3.48676">
        <ele>1123.7005168788</ele>
        <time>2017-05-26T16:47:43Z</time>
      </trkpt>
      <trkpt lat="44.01295" lon="3.48682">
        <ele>1123.7005168788</ele>
        <time>2017-05-26T16:48:00Z</time>
      </trkpt>
      <trkpt lat="44.0126" lon="3.4871">
        <ele>1118.3725631225</ele>
        <time>2017-05-26T16:48:25Z</time>
      </trkpt>
      <trkpt lat="44.01247" lon="3.48722">
        <ele>1113.7658148864</ele>
        <time>2017-05-26T16:48:50Z</time>
      </trkpt>
      <trkpt lat="44.01239" lon="3.48728">
        <ele>1113.7658148864</ele>
        <time>2017-05-26T16:48:50Z</time>
      </trkpt>
      <trkpt lat="44.01228" lon="3.48737">
        <ele>1109.4666123785</ele>
        <time>2017-05-26T16:49:08Z</time>
      </trkpt>
      <trkpt lat="44.01203" lon="3.48751">
        <ele>1105.4504657376</ele>
        <time>2017-05-26T16:49:37Z</time>
      </trkpt>
      <trkpt lat="44.01196" lon="3.48755">
        <ele>1105.4504657376</ele>
        <time>2017-05-26T16:49:58Z</time>
      </trkpt>
      <trkpt lat="44.01193" lon="3.48757">
        <ele>1101.8518334632</ele>
        <time>2017-05-26T16:49:58Z</time>
      </trkpt>
      <trkpt lat="44.01174" lon="3.48786">
        <ele>1098.5197898892</ele>
        <time>2017-05-26T16:50:47Z</time>
      </trkpt>
      <trkpt lat="44.01174" lon="3.48801">
        <ele>1095.2268113707</ele>
        <time>2017-05-26T16:51:42Z</time>
      </trkpt>
      <trkpt lat="44.01174" lon="3.48806">
        <ele>1095.2268113707</ele>
        <time>2017-05-26T16:51:47Z</time>
      </trkpt>
      <trkpt lat="44.01174" lon="3.48807">
        <ele>1095.2268113707</ele>
        <time>2017-05-26T16:51:52Z</time>
      </trkpt>
      <trkpt lat="44.01194" lon="3.48886">
        <ele>1092.0786061547</ele>
        <time>2017-05-26T16:53:27Z</time>
      </trkpt>
      <trkpt lat="44.01196" lon="3.48894">
        <ele>1092.0786061547</ele>
        <time>2017-05-26T16:53:34Z</time>
      </trkpt>
      <trkpt lat="44.01219" lon="3.48914">
        <ele>1089.5182141208</ele>
        <time>2017-05-26T16:54:05Z</time>
      </trkpt>
      <trkpt lat="44.01219" lon="3.48938">
        <ele>1087.3489023712</ele>
        <time>2017-05-26T16:54:49Z</time>
      </trkpt>
      <trkpt lat="44.01189" lon="3.49031">
        <ele>1084.0900303199</ele>
        <time>2017-05-26T16:56:38Z</time>
      </trkpt>
      <trkpt lat="44.01157" lon="3.49085">
        <ele>1080.4189439725</ele>
        <time>2017-05-26T16:57:22Z</time>
      </trkpt>
      <trkpt lat="44.01148" lon="3.49092">
        <ele>1077.223616076</ele>
        <time>2017-05-26T16:57:31Z</time>
      </trkpt>
      <trkpt lat="44.01148" lon="3.49092">
        <ele>1077.223616076</ele>
        <time>2017-05-26T16:57:32Z</time>
      </trkpt>
      <trkpt lat="44.01101" lon="3.49126">
        <ele>1073.1492409094</ele>
        <time>2017-05-26T16:58:23Z</time>
      </trkpt>
      <trkpt lat="44.01072" lon="3.49155">
        <ele>1068.8883992667</ele>
        <time>2017-05-26T16:58:55Z</time>
      </trkpt>
      <trkpt lat="44.01069" lon="3.49157">
        <ele>1068.8883992667</ele>
        <time>2017-05-26T16:58:55Z</time>
      </trkpt>
      <trkpt lat="44.01011" lon="3.49206">
        <ele>1063.5412516567</ele>
        <time>2017-05-26T16:59:52Z</time>
      </trkpt>
      <trkpt lat="44.0101" lon="3.49207">
        <ele>1063.5412516567</ele>
        <time>2017-05-26T16:59:53Z</time>
      </trkpt>
      <trkpt lat="44.01004" lon="3.49213">
        <ele>1063.5412516567</ele>
        <time>2017-05-26T16:59:58Z</time>
      </trkpt>
      <trkpt lat="44.00999" lon="3.49219">
        <ele>1058.4387197082</ele>
        <time>2017-05-26T17:00:07Z</time>
      </trkpt>
      <trkpt lat="44.00999" lon="3.4922">
        <ele>1058.4387197082</ele>
        <time>2017-05-26T17:00:13Z</time>
      </trkpt>
      <trkpt lat="44.00995" lon="3.49217">
        <ele>1058.4387197082</ele>
        <time>2017-05-26T17:04:23Z</time>
      </trkpt>
      <trkpt lat="44.00991" lon="3.49219">
        <ele>1050.5331250062</ele>
        <time>2017-05-26T17:04:27Z</time>
      </trkpt>
      <trkpt lat="44.00974" lon="3.49233">
        <ele>1043.4790881641</ele>
        <time>2017-05-26T17:05:00Z</time>
      </trkpt>
      <trkpt lat="44.00948" lon="3.4926">
        <ele>1037.3025505476</ele>
        <time>2017-05-26T17:05:23Z</time>
      </trkpt>
      <trkpt lat="44.00941" lon="3.49268">
        <ele>1037.3025505476</ele>
        <time>2017-05-26T17:05:23Z</time>
      </trkpt>
      <trkpt lat="44.00927" lon="3.49278">
        <ele>1031.9241759981</ele>
        <time>2017-05-26T17:05:37Z</time>
      </trkpt>
      <trkpt lat="44.00922" lon="3.49279">
        <ele>1031.9241759981</ele>
        <time>2017-05-26T17:05:45Z</time>
      </trkpt>
      <trkpt lat="44.00903" lon="3.49281">
        <ele>1027.210543763</ele>
        <time>2017-05-26T17:06:10Z</time>
      </trkpt>
      <trkpt lat="44.00891" lon="3.49281">
        <ele>1023.165850146</ele>
        <time>2017-05-26T17:06:18Z</time>
      </trkpt>
      <trkpt lat="44.00807" lon="3.49219">
        <ele>1018.9850788317</ele>
        <time>2017-05-26T17:07:43Z</time>
      </trkpt>
      <trkpt lat="44.00799" lon="3.49214">
        <ele>1018.9850788317</ele>
        <time>2017-05-26T17:07:43Z</time>
      </trkpt>
      <trkpt lat="44.00792" lon="3.49207">
        <ele>1015.479144283</ele>
        <time>2017-05-26T17:08:00Z</time>
      </trkpt>
      <trkpt lat="44.0076" lon="3.49193">
        <ele>1012.4463972396</ele>
        <time>2017-05-26T17:08:27Z</time>
      </trkpt>
      <trkpt lat="44.00766" lon="3.49226">
        <ele>1009.8860727901</ele>
        <time>2017-05-26T17:09:01Z</time>
      </trkpt>
      <trkpt lat="44.00765" lon="3.49226">
        <ele>1009.8860727901</ele>
        <time>2017-05-26T17:09:02Z</time>
      </trkpt>
      <trkpt lat="44.00741" lon="3.49217">
        <ele>1007.7097478967</ele>
        <time>2017-05-26T17:09:37Z</time>
      </trkpt>
      <trkpt lat="44.00641" lon="3.49217">
        <ele>1004.9410299665</ele>
        <time>2017-05-26T17:11:00Z</time>
      </trkpt>
      <trkpt lat="44.00641" lon="3.49217">
        <ele>1004.9410299665</ele>
        <time>2017-05-26T17:11:15Z</time>
      </trkpt>
      <trkpt lat="44.00626" lon="3.49218">
        <ele>1002.1902053525</ele>
        <time>2017-05-26T17:11:15Z</time>
      </trkpt>
      <trkpt lat="44.00502" lon="3.49142">
        <ele>994.0710243528</ele>
        <time>2017-05-26T17:13:37Z</time>
      </trkpt>
      <trkpt lat="44.00458" lon="3.49128">
        <ele>985.55177702415</ele>
        <time>2017-05-26T17:14:37Z</time>
      </trkpt>
      <trkpt lat="44.00449" lon="3.49155">
        <ele>977.49014641969</ele>
        <time>2017-05-26T17:15:11Z</time>
      </trkpt>
      <trkpt lat="44.0044" lon="3.49158">
        <ele>977.49014641969</ele>
        <time>2017-05-26T17:15:11Z</time>
      </trkpt>
      <trkpt lat="44.0044" lon="3.49158">
        <ele>970.21848074688</ele>
        <time>2017-05-26T17:15:12Z</time>
      </trkpt>
      <trkpt lat="44.00426" lon="3.49152">
        <ele>963.55260652406</ele>
        <time>2017-05-26T17:15:29Z</time>
      </trkpt>
      <trkpt lat="44.00405" lon="3.49147">
        <ele>957.13290373806</ele>
        <time>2017-05-26T17:16:03Z</time>
      </trkpt>
      <trkpt lat="44.00381" lon="3.49172">
        <ele>951.80724749954</ele>
        <time>2017-05-26T17:17:35Z</time>
      </trkpt>
      <trkpt lat="44.00379" lon="3.49171">
        <ele>951.80724749954</ele>
        <time>2017-05-26T17:17:37Z</time>
      </trkpt>
      <trkpt lat="44.00364" lon="3.49178">
        <ele>947.13326576549</ele>
        <time>2017-05-26T17:17:54Z</time>
      </trkpt>
      <trkpt lat="44.00379" lon="3.49209">
        <ele>942.28138266212</ele>
        <time>2017-05-26T17:19:00Z</time>
      </trkpt>
      <trkpt lat="44.00329" lon="3.49236">
        <ele>936.77173557751</ele>
        <time>2017-05-26T17:20:34Z</time>
      </trkpt>
      <trkpt lat="44.00318" lon="3.49237">
        <ele>931.97741387485</ele>
        <time>2017-05-26T17:20:34Z</time>
      </trkpt>
      <trkpt lat="44.00235" lon="3.49222">
        <ele>925.78207825425</ele>
        <time>2017-05-26T17:21:37Z</time>
      </trkpt>
      <trkpt lat="44.00218" lon="3.49219">
        <ele>919.61545289853</ele>
        <time>2017-05-26T17:21:56Z</time>
      </trkpt>
      <trkpt lat="44.00216" lon="3.49215">
        <ele>919.61545289853</ele>
        <time>2017-05-26T17:21:56Z</time>
      </trkpt>
      <trkpt lat="44.00215" lon="3.49215">
        <ele>919.61545289853</ele>
        <time>2017-05-26T17:21:57Z</time>
      </trkpt>
      <trkpt lat="44.00201" lon="3.49207">
        <ele>912.81347190343</ele>
        <time>2017-05-26T17:22:14Z</time>
      </trkpt>
      <trkpt lat="44.0017" lon="3.49194">
        <ele>905.46882169091</ele>
        <time>2017-05-26T17:22:50Z</time>
      </trkpt>
      <trkpt lat="44.00166" lon="3.49184">
        <ele>905.46882169091</ele>
        <time>2017-05-26T17:22:50Z</time>
      </trkpt>
      <trkpt lat="44.00158" lon="3.49152">
        <ele>897.55364447348</ele>
        <time>2017-05-26T17:23:17Z</time>
      </trkpt>
      <trkpt lat="44.00127" lon="3.49161">
        <ele>888.53935489092</ele>
        <time>2017-05-26T17:25:32Z</time>
      </trkpt>
      <trkpt lat="44.00118" lon="3.49132">
        <ele>880.46122227461</ele>
        <time>2017-05-26T17:26:00Z</time>
      </trkpt>
      <trkpt lat="44.00028" lon="3.49105">
        <ele>870.0431729121</ele>
        <time>2017-05-26T17:29:32Z</time>
      </trkpt>
      <trkpt lat="44.00003" lon="3.49118">
        <ele>860.20809443503</ele>
        <time>2017-05-26T17:30:01Z</time>
      </trkpt>
      <trkpt lat="44.00002" lon="3.49119">
        <ele>860.20809443503</ele>
        <time>2017-05-26T17:30:02Z</time>
      </trkpt>
      <trkpt lat="43.99999" lon="3.49122">
        <ele>860.20809443503</ele>
        <time>2017-05-26T17:30:06Z</time>
      </trkpt>
      <trkpt lat="43.99982" lon="3.49134">
        <ele>850.90992404549</ele>
        <time>2017-05-26T17:30:37Z</time>
      </trkpt>
      <trkpt lat="43.99968" lon="3.49138">
        <ele>842.3061302348</ele>
        <time>2017-05-26T17:30:51Z</time>
      </trkpt>
      <trkpt lat="43.99952" lon="3.49147">
        <ele>834.42525481238</ele>
        <time>2017-05-26T17:31:12Z</time>
      </trkpt>
      <trkpt lat="43.99944" lon="3.49156">
        <ele>827.30599090349</ele>
        <time>2017-05-26T17:31:30Z</time>
      </trkpt>
      <trkpt lat="43.99905" lon="3.492">
        <ele>820.24694388273</ele>
        <time>2017-05-26T17:32:03Z</time>
      </trkpt>
      <trkpt lat="43.99804" lon="3.49226">
        <ele>812.35294014871</ele>
        <time>2017-05-26T17:33:32Z</time>
      </trkpt>
      <trkpt lat="43.99785" lon="3.49207">
        <ele>805.18900782358</ele>
        <time>2017-05-26T17:33:53Z</time>
      </trkpt>
      <trkpt lat="43.99783" lon="3.49196">
        <ele>805.18900782358</ele>
        <time>2017-05-26T17:33:53Z</time>
      </trkpt>
      <trkpt lat="43.99779" lon="3.49166">
        <ele>798.35839477251</ele>
        <time>2017-05-26T17:34:22Z</time>
      </trkpt>
      <trkpt lat="43.99777" lon="3.49154">
        <ele>798.35839477251</ele>
        <time>2017-05-26T17:34:22Z</time>
      </trkpt>
      <trkpt lat="43.99777" lon="3.49152">
        <ele>792.12650826665</ele>
        <time>2017-05-26T17:34:23Z</time>
      </trkpt>
      <trkpt lat="43.99785" lon="3.49087">
        <ele>784.61900844272</ele>
        <time>2017-05-26T17:35:04Z</time>
      </trkpt>
      <trkpt lat="43.99788" lon="3.4908">
        <ele>784.61900844272</ele>
        <time>2017-05-26T17:35:04Z</time>
      </trkpt>
      <trkpt lat="43.99769" lon="3.49058">
        <ele>775.73114335336</ele>
        <time>2017-05-26T17:35:57Z</time>
      </trkpt>
      <trkpt lat="43.99765" lon="3.49062">
        <ele>775.73114335336</ele>
        <time>2017-05-26T17:36:02Z</time>
      </trkpt>
      <trkpt lat="43.99761" lon="3.49064">
        <ele>775.73114335336</ele>
        <time>2017-05-26T17:36:07Z</time>
      </trkpt>
      <trkpt lat="43.99757" lon="3.49068">
        <ele>767.3583282483</ele>
        <time>2017-05-26T17:36:12Z</time>
      </trkpt>
      <trkpt lat="43.99752" lon="3.49074">
        <ele>767.3583282483</ele>
        <time>2017-05-26T17:36:17Z</time>
      </trkpt>
      <trkpt lat="43.9975" lon="3.49077">
        <ele>759.81404983735</ele>
        <time>2017-05-26T17:36:22Z</time>
      </trkpt>
      <trkpt lat="43.99726" lon="3.49117">
        <ele>752.4928137856</ele>
        <time>2017-05-26T17:36:57Z</time>
      </trkpt>
      <trkpt lat="43.99711" lon="3.49131">
        <ele>745.52457330975</ele>
        <time>2017-05-26T17:37:29Z</time>
      </trkpt>
      <trkpt lat="43.99709" lon="3.49127">
        <ele>745.52457330975</ele>
        <time>2017-05-26T17:37:32Z</time>
      </trkpt>
      <trkpt lat="43.99697" lon="3.49089">
        <ele>738.91332028605</ele>
        <time>2017-05-26T17:38:08Z</time>
      </trkpt>
      <trkpt lat="43.99693" lon="3.49077">
        <ele>733.10836869253</ele>
        <time>2017-05-26T17:38:08Z</time>
      </trkpt>
      <trkpt lat="43.99693" lon="3.49076">
        <ele>733.10836869253</ele>
        <time>2017-05-26T17:38:09Z</time>
      </trkpt>
      <trkpt lat="43.99685" lon="3.49047">
        <ele>727.78868097058</ele>
        <time>2017-05-26T17:38:33Z</time>
      </trkpt>
      <trkpt lat="43.99681" lon="3.49041">
        <ele>727.78868097058</ele>
        <time>2017-05-26T17:38:33Z</time>
      </trkpt>
      <trkpt lat="43.99647" lon="3.49027">
        <ele>722.91474048723</ele>
        <time>2017-05-26T17:39:34Z</time>
      </trkpt>
      <trkpt lat="43.9962" lon="3.49002">
        <ele>718.47742299186</ele>
        <time>2017-05-26T17:40:37Z</time>
      </trkpt>
      <trkpt lat="43.9963" lon="3.49">
        <ele>714.14994420472</ele>
        <time>2017-05-26T17:40:57Z</time>
      </trkpt>
      <trkpt lat="43.99633" lon="3.48997">
        <ele>714.14994420472</ele>
        <time>2017-05-26T17:41:02Z</time>
      </trkpt>
      <trkpt lat="43.99637" lon="3.48994">
        <ele>714.14994420472</ele>
        <time>2017-05-26T17:41:07Z</time>
      </trkpt>
      <trkpt lat="43.99639" lon="3.48992">
        <ele>710.14797953836</ele>
        <time>2017-05-26T17:41:12Z</time>
      </trkpt>
      <trkpt lat="43.99638" lon="3.48994">
        <ele>710.14797953836</ele>
        <time>2017-05-26T17:41:32Z</time>
      </trkpt>
      <trkpt lat="43.99633" lon="3.48997">
        <ele>710.14797953836</ele>
        <time>2017-05-26T17:41:37Z</time>
      </trkpt>
      <trkpt lat="43.99628" lon="3.48999">
        <ele>706.46867862369</ele>
        <time>2017-05-26T17:41:42Z</time>
      </trkpt>
      <trkpt lat="43.99623" lon="3.49002">
        <ele>706.46867862369</ele>
        <time>2017-05-26T17:41:47Z</time>
      </trkpt>
      <trkpt lat="43.99617" lon="3.49003">
        <ele>703.4111405206</ele>
        <time>2017-05-26T17:41:52Z</time>
      </trkpt>
      <trkpt lat="43.99611" lon="3.49006">
        <ele>703.4111405206</ele>
        <time>2017-05-26T17:41:57Z</time>
      </trkpt>
      <trkpt lat="43.99607" lon="3.49008">
        <ele>701.22196513934</ele>
        <time>2017-05-26T17:42:02Z</time>
      </trkpt>
      <trkpt lat="43.996" lon="3.49007">
        <ele>701.22196513934</ele>
        <time>2017-05-26T17:42:07Z</time>
      </trkpt>
      <trkpt lat="43.99593" lon="3.49005">
        <ele>699.52200272739</ele>
        <time>2017-05-26T17:42:12Z</time>
      </trkpt>
      <trkpt lat="43.99588" lon="3.49004">
        <ele>699.52200272739</ele>
        <time>2017-05-26T17:42:17Z</time>
      </trkpt>
      <trkpt lat="43.99582" lon="3.49003">
        <ele>698.17485001613</ele>
        <time>2017-05-26T17:42:22Z</time>
      </trkpt>
      <trkpt lat="43.99577" lon="3.49002">
        <ele>698.17485001613</ele>
        <time>2017-05-26T17:42:27Z</time>
      </trkpt>
      <trkpt lat="43.9957" lon="3.49002">
        <ele>697.11091207376</ele>
        <time>2017-05-26T17:42:36Z</time>
      </trkpt>
      <trkpt lat="43.99484" lon="3.49012">
        <ele>695.41482219115</ele>
        <time>2017-05-26T17:43:42Z</time>
      </trkpt>
      <trkpt lat="43.99478" lon="3.49014">
        <ele>695.41482219115</ele>
        <time>2017-05-26T17:43:47Z</time>
      </trkpt>
      <trkpt lat="43.99474" lon="3.49016">
        <ele>694.28680589512</ele>
        <time>2017-05-26T17:43:52Z</time>
      </trkpt>
      <trkpt lat="43.99469" lon="3.49018">
        <ele>694.28680589512</ele>
        <time>2017-05-26T17:43:57Z</time>
      </trkpt>
      <trkpt lat="43.99463" lon="3.49021">
        <ele>693.7423106614</ele>
        <time>2017-05-26T17:44:02Z</time>
      </trkpt>
      <trkpt lat="43.99461" lon="3.49017">
        <ele>693.7423106614</ele>
        <time>2017-05-26T17:44:07Z</time>
      </trkpt>
      <trkpt lat="43.99457" lon="3.49014">
        <ele>693.7423106614</ele>
        <time>2017-05-26T17:44:12Z</time>
      </trkpt>
      <trkpt lat="43.99455" lon="3.49015">
        <ele>693.34752455556</ele>
        <time>2017-05-26T17:44:17Z</time>
      </trkpt>
      <trkpt lat="43.99452" lon="3.49011">
        <ele>693.34752455556</ele>
        <time>2017-05-26T17:44:22Z</time>
      </trkpt>
      <trkpt lat="43.99445" lon="3.49005">
        <ele>692.93094532219</ele>
        <time>2017-05-26T17:44:32Z</time>
      </trkpt>
      <trkpt lat="43.99387" lon="3.48968">
        <ele>692.59344133072</ele>
        <time>2017-05-26T17:45:27Z</time>
      </trkpt>
      <trkpt lat="43.9938" lon="3.48967">
        <ele>692.59344133072</ele>
        <time>2017-05-26T17:45:32Z</time>
      </trkpt>
      <trkpt lat="43.99178" lon="3.48768">
        <ele>685.06449209898</ele>
        <time>2017-05-26T17:49:32Z</time>
      </trkpt>
      <trkpt lat="43.99175" lon="3.48763">
        <ele>685.06449209898</ele>
        <time>2017-05-26T17:49:37Z</time>
      </trkpt>
      <trkpt lat="43.99173" lon="3.48759">
        <ele>685.06449209898</ele>
        <time>2017-05-26T17:49:42Z</time>
      </trkpt>
      <trkpt lat="43.99158" lon="3.48735">
        <ele>677.39078003401</ele>
        <time>2017-05-26T17:50:03Z</time>
      </trkpt>
      <trkpt lat="43.99148" lon="3.48708">
        <ele>669.89086669945</ele>
        <time>2017-05-26T17:50:23Z</time>
      </trkpt>
      <trkpt lat="43.99119" lon="3.48611">
        <ele>660.97184665642</ele>
        <time>2017-05-26T17:51:48Z</time>
      </trkpt>
      <trkpt lat="43.99109" lon="3.48602">
        <ele>652.79364888477</ele>
        <time>2017-05-26T17:51:58Z</time>
      </trkpt>
      <trkpt lat="43.99108" lon="3.486">
        <ele>652.79364888477</ele>
        <time>2017-05-26T17:51:58Z</time>
      </trkpt>
      <trkpt lat="43.99106" lon="3.48524">
        <ele>643.98345323431</ele>
        <time>2017-05-26T17:53:04Z</time>
      </trkpt>
      <trkpt lat="43.99095" lon="3.48489">
        <ele>635.66346275171</ele>
        <time>2017-05-26T17:53:27Z</time>
      </trkpt>
      <trkpt lat="43.99089" lon="3.4848">
        <ele>635.66346275171</ele>
        <time>2017-05-26T17:53:38Z</time>
      </trkpt>
      <trkpt lat="43.99088" lon="3.4848">
        <ele>628.00752366499</ele>
        <time>2017-05-26T17:53:39Z</time>
      </trkpt>
      <trkpt lat="43.99087" lon="3.48478">
        <ele>628.00752366499</ele>
        <time>2017-05-26T17:53:42Z</time>
      </trkpt>
      <trkpt lat="43.99083" lon="3.48468">
        <ele>620.97318333908</ele>
        <time>2017-05-26T17:54:00Z</time>
      </trkpt>
      <trkpt lat="43.99081" lon="3.48461">
        <ele>620.97318333908</ele>
        <time>2017-05-26T17:54:00Z</time>
      </trkpt>
      <trkpt lat="43.99045" lon="3.48387">
        <ele>612.70362433193</ele>
        <time>2017-05-26T17:55:08Z</time>
      </trkpt>
      <trkpt lat="43.99039" lon="3.48378">
        <ele>612.70362433193</ele>
        <time>2017-05-26T17:55:08Z</time>
      </trkpt>
      <trkpt lat="43.99036" lon="3.4834">
        <ele>604.53708758585</ele>
        <time>2017-05-26T17:56:02Z</time>
      </trkpt>
      <trkpt lat="43.99064" lon="3.48253">
        <ele>594.00956957354</ele>
        <time>2017-05-26T17:57:11Z</time>
      </trkpt>
      <trkpt lat="43.99072" lon="3.48232">
        <ele>584.23443076827</ele>
        <time>2017-05-26T17:57:30Z</time>
      </trkpt>
      <trkpt lat="43.99049" lon="3.48127">
        <ele>572.32971179858</ele>
        <time>2017-05-26T17:58:57Z</time>
      </trkpt>
      <trkpt lat="43.99044" lon="3.48125">
        <ele>572.32971179858</ele>
        <time>2017-05-26T17:59:02Z</time>
      </trkpt>
      <trkpt lat="43.9904" lon="3.48123">
        <ele>561.55400967621</ele>
        <time>2017-05-26T17:59:07Z</time>
      </trkpt>
      <trkpt lat="43.99039" lon="3.48122">
        <ele>561.55400967621</ele>
        <time>2017-05-26T17:59:12Z</time>
      </trkpt>
      <trkpt lat="43.99035" lon="3.48115">
        <ele>561.55400967621</ele>
        <time>2017-05-26T17:59:17Z</time>
      </trkpt>
      <trkpt lat="43.99033" lon="3.48109">
        <ele>551.88250389248</ele>
        <time>2017-05-26T17:59:22Z</time>
      </trkpt>
      <trkpt lat="43.9903" lon="3.48099">
        <ele>551.88250389248</ele>
        <time>2017-05-26T17:59:27Z</time>
      </trkpt>
      <trkpt lat="43.99031" lon="3.48092">
        <ele>543.34658341109</ele>
        <time>2017-05-26T17:59:32Z</time>
      </trkpt>
      <trkpt lat="43.99032" lon="3.48082">
        <ele>543.34658341109</ele>
        <time>2017-05-26T17:59:37Z</time>
      </trkpt>
      <trkpt lat="43.99034" lon="3.48075">
        <ele>535.68373955476</ele>
        <time>2017-05-26T17:59:42Z</time>
      </trkpt>
      <trkpt lat="43.99038" lon="3.48069">
        <ele>535.68373955476</ele>
        <time>2017-05-26T17:59:47Z</time>
      </trkpt>
      <trkpt lat="43.99043" lon="3.48065">
        <ele>528.89309121981</ele>
        <time>2017-05-26T17:59:52Z</time>
      </trkpt>
      <trkpt lat="43.99044" lon="3.48062">
        <ele>528.89309121981</ele>
        <time>2017-05-26T17:59:57Z</time>
      </trkpt>
      <trkpt lat="43.99038" lon="3.4803">
        <ele>521.5732963008</ele>
        <time>2017-05-26T18:00:47Z</time>
      </trkpt>
      <trkpt lat="43.9904" lon="3.48021">
        <ele>521.5732963008</ele>
        <time>2017-05-26T18:00:47Z</time>
      </trkpt>
      <trkpt lat="43.99041" lon="3.48011">
        <ele>514.77625174363</ele>
        <time>2017-05-26T18:01:02Z</time>
      </trkpt>
      <trkpt lat="43.99041" lon="3.4801">
        <ele>514.77625174363</ele>
        <time>2017-05-26T18:01:02Z</time>
      </trkpt>
      <trkpt lat="43.99029" lon="3.47993">
        <ele>508.53820007041</ele>
        <time>2017-05-26T18:01:22Z</time>
      </trkpt>
      <trkpt lat="43.99019" lon="3.47982">
        <ele>502.93420174302</ele>
        <time>2017-05-26T18:01:37Z</time>
      </trkpt>
      <trkpt lat="43.99005" lon="3.47973">
        <ele>497.93097387502</ele>
        <time>2017-05-26T18:02:02Z</time>
      </trkpt>
      <trkpt lat="43.98999" lon="3.47969">
        <ele>497.93097387502</ele>
        <time>2017-05-26T18:02:03Z</time>
      </trkpt>
      <trkpt lat="43.98997" lon="3.47967">
        <ele>497.93097387502</ele>
        <time>2017-05-26T18:02:11Z</time>
      </trkpt>
      <trkpt lat="43.98953" lon="3.47994">
        <ele>491.75208862833</ele>
        <time>2017-05-26T18:03:09Z</time>
      </trkpt>
    </trkseg>
  </trk>
</gpx>